<?xml version="1.0" encoding="UTF-8" standalone="no" ?>
<gpx xmlns="http://www.topografix.com/GPX/1/1" xmlns:xsi="http://www.w3.org/2001/XMLSchema-instance" xsi:schemaLocation="http://www.topografix.com/GPX/1/1 http://www.topografix.com/GPX/1/1/gpx.xsd" version="1.1" creator="VisuGPX - https://www.visugpx.com">
  <metadata>
    <name>Activité de Randonnée TwoNav</name>
    <desc><![CDATA[2022-07-12_203632.trk]]></desc>
  </metadata>
  <trk>
    <name><![CDATA[Activité de Randonnée TwoNav_1]]></name>
    <trkseg>
      <trkpt lat="49.20421" lon="7.26279">
        <ele>302.3</ele>
        <time>2022-07-12T18:36:32Z</time>
      </trkpt>
      <trkpt lat="49.20422" lon="7.26277">
        <ele>302.3</ele>
        <time>2022-07-12T18:36:33Z</time>
      </trkpt>
      <trkpt lat="49.20423" lon="7.26275">
        <ele>302.2</ele>
        <time>2022-07-12T18:36:34Z</time>
      </trkpt>
      <trkpt lat="49.20424" lon="7.26272">
        <ele>302.2</ele>
        <time>2022-07-12T18:36:36Z</time>
      </trkpt>
      <trkpt lat="49.20425" lon="7.2627">
        <ele>302.2</ele>
        <time>2022-07-12T18:36:46Z</time>
      </trkpt>
      <trkpt lat="49.20426" lon="7.26268">
        <ele>302.2</ele>
        <time>2022-07-12T18:36:46Z</time>
      </trkpt>
      <trkpt lat="49.20423" lon="7.26254">
        <ele>302</ele>
        <time>2022-07-12T18:36:55Z</time>
      </trkpt>
      <trkpt lat="49.20422" lon="7.26239">
        <ele>301.9</ele>
        <time>2022-07-12T18:37:04Z</time>
      </trkpt>
      <trkpt lat="49.2042" lon="7.26225">
        <ele>301.7</ele>
        <time>2022-07-12T18:37:12Z</time>
      </trkpt>
      <trkpt lat="49.20415" lon="7.26211">
        <ele>301.5</ele>
        <time>2022-07-12T18:37:20Z</time>
      </trkpt>
      <trkpt lat="49.20411" lon="7.26197">
        <ele>301.2</ele>
        <time>2022-07-12T18:37:28Z</time>
      </trkpt>
      <trkpt lat="49.20407" lon="7.26182">
        <ele>301</ele>
        <time>2022-07-12T18:37:36Z</time>
      </trkpt>
      <trkpt lat="49.20404" lon="7.26169">
        <ele>300.9</ele>
        <time>2022-07-12T18:37:43Z</time>
      </trkpt>
      <trkpt lat="49.20401" lon="7.26156">
        <ele>300.8</ele>
        <time>2022-07-12T18:37:51Z</time>
      </trkpt>
      <trkpt lat="49.20397" lon="7.26143">
        <ele>300.7</ele>
        <time>2022-07-12T18:37:59Z</time>
      </trkpt>
      <trkpt lat="49.20394" lon="7.26129">
        <ele>300.5</ele>
        <time>2022-07-12T18:38:08Z</time>
      </trkpt>
      <trkpt lat="49.2039" lon="7.26116">
        <ele>300.5</ele>
        <time>2022-07-12T18:38:16Z</time>
      </trkpt>
      <trkpt lat="49.20387" lon="7.26101">
        <ele>300.4</ele>
        <time>2022-07-12T18:38:24Z</time>
      </trkpt>
      <trkpt lat="49.20384" lon="7.26088">
        <ele>300.3</ele>
        <time>2022-07-12T18:38:32Z</time>
      </trkpt>
      <trkpt lat="49.20375" lon="7.26087">
        <ele>300.4</ele>
        <time>2022-07-12T18:38:40Z</time>
      </trkpt>
      <trkpt lat="49.20367" lon="7.26093">
        <ele>300.5</ele>
        <time>2022-07-12T18:38:48Z</time>
      </trkpt>
      <trkpt lat="49.20358" lon="7.26098">
        <ele>300.6</ele>
        <time>2022-07-12T18:38:56Z</time>
      </trkpt>
      <trkpt lat="49.20349" lon="7.26104">
        <ele>300.8</ele>
        <time>2022-07-12T18:39:04Z</time>
      </trkpt>
      <trkpt lat="49.20339" lon="7.26109">
        <ele>300.9</ele>
        <time>2022-07-12T18:39:11Z</time>
      </trkpt>
      <trkpt lat="49.2033" lon="7.26114">
        <ele>301</ele>
        <time>2022-07-12T18:39:18Z</time>
      </trkpt>
      <trkpt lat="49.20321" lon="7.26116">
        <ele>301.1</ele>
        <time>2022-07-12T18:39:26Z</time>
      </trkpt>
      <trkpt lat="49.20312" lon="7.2612">
        <ele>301.2</ele>
        <time>2022-07-12T18:39:34Z</time>
      </trkpt>
      <trkpt lat="49.20303" lon="7.26124">
        <ele>301.3</ele>
        <time>2022-07-12T18:39:41Z</time>
      </trkpt>
      <trkpt lat="49.20292" lon="7.26128">
        <ele>301.4</ele>
        <time>2022-07-12T18:39:49Z</time>
      </trkpt>
      <trkpt lat="49.20284" lon="7.2613">
        <ele>301.5</ele>
        <time>2022-07-12T18:39:56Z</time>
      </trkpt>
      <trkpt lat="49.20274" lon="7.26135">
        <ele>301.6</ele>
        <time>2022-07-12T18:40:03Z</time>
      </trkpt>
      <trkpt lat="49.20265" lon="7.26139">
        <ele>301.6</ele>
        <time>2022-07-12T18:40:10Z</time>
      </trkpt>
      <trkpt lat="49.20256" lon="7.26144">
        <ele>301.7</ele>
        <time>2022-07-12T18:40:17Z</time>
      </trkpt>
      <trkpt lat="49.20247" lon="7.26149">
        <ele>301.8</ele>
        <time>2022-07-12T18:40:24Z</time>
      </trkpt>
      <trkpt lat="49.20237" lon="7.26152">
        <ele>301.9</ele>
        <time>2022-07-12T18:40:32Z</time>
      </trkpt>
      <trkpt lat="49.20228" lon="7.26154">
        <ele>301.9</ele>
        <time>2022-07-12T18:40:41Z</time>
      </trkpt>
      <trkpt lat="49.20219" lon="7.26157">
        <ele>302</ele>
        <time>2022-07-12T18:40:48Z</time>
      </trkpt>
      <trkpt lat="49.2021" lon="7.26161">
        <ele>302</ele>
        <time>2022-07-12T18:40:56Z</time>
      </trkpt>
      <trkpt lat="49.20201" lon="7.26167">
        <ele>302.1</ele>
        <time>2022-07-12T18:41:03Z</time>
      </trkpt>
      <trkpt lat="49.20193" lon="7.26174">
        <ele>302.2</ele>
        <time>2022-07-12T18:41:10Z</time>
      </trkpt>
      <trkpt lat="49.20183" lon="7.2618">
        <ele>302.3</ele>
        <time>2022-07-12T18:41:18Z</time>
      </trkpt>
      <trkpt lat="49.20175" lon="7.26187">
        <ele>302.4</ele>
        <time>2022-07-12T18:41:26Z</time>
      </trkpt>
      <trkpt lat="49.20166" lon="7.26193">
        <ele>302.6</ele>
        <time>2022-07-12T18:41:34Z</time>
      </trkpt>
      <trkpt lat="49.20158" lon="7.26201">
        <ele>302.8</ele>
        <time>2022-07-12T18:41:41Z</time>
      </trkpt>
      <trkpt lat="49.20151" lon="7.2621">
        <ele>303</ele>
        <time>2022-07-12T18:41:48Z</time>
      </trkpt>
      <trkpt lat="49.20143" lon="7.26217">
        <ele>303.3</ele>
        <time>2022-07-12T18:41:55Z</time>
      </trkpt>
      <trkpt lat="49.20135" lon="7.26224">
        <ele>303.5</ele>
        <time>2022-07-12T18:42:01Z</time>
      </trkpt>
      <trkpt lat="49.20127" lon="7.26233">
        <ele>303.7</ele>
        <time>2022-07-12T18:42:08Z</time>
      </trkpt>
      <trkpt lat="49.2012" lon="7.26244">
        <ele>303.9</ele>
        <time>2022-07-12T18:42:16Z</time>
      </trkpt>
      <trkpt lat="49.20112" lon="7.26253">
        <ele>304</ele>
        <time>2022-07-12T18:42:23Z</time>
      </trkpt>
      <trkpt lat="49.20104" lon="7.26262">
        <ele>304.2</ele>
        <time>2022-07-12T18:42:31Z</time>
      </trkpt>
      <trkpt lat="49.20098" lon="7.26273">
        <ele>304.3</ele>
        <time>2022-07-12T18:42:37Z</time>
      </trkpt>
      <trkpt lat="49.20089" lon="7.26281">
        <ele>304.3</ele>
        <time>2022-07-12T18:42:46Z</time>
      </trkpt>
      <trkpt lat="49.2008" lon="7.26287">
        <ele>304.4</ele>
        <time>2022-07-12T18:42:54Z</time>
      </trkpt>
      <trkpt lat="49.20071" lon="7.26295">
        <ele>304.4</ele>
        <time>2022-07-12T18:43:02Z</time>
      </trkpt>
      <trkpt lat="49.20062" lon="7.263">
        <ele>304.3</ele>
        <time>2022-07-12T18:43:10Z</time>
      </trkpt>
      <trkpt lat="49.20054" lon="7.26309">
        <ele>304.3</ele>
        <time>2022-07-12T18:43:18Z</time>
      </trkpt>
      <trkpt lat="49.20056" lon="7.26325">
        <ele>304.4</ele>
        <time>2022-07-12T18:43:27Z</time>
      </trkpt>
      <trkpt lat="49.20057" lon="7.26339">
        <ele>304.5</ele>
        <time>2022-07-12T18:43:35Z</time>
      </trkpt>
      <trkpt lat="49.20058" lon="7.26355">
        <ele>304.6</ele>
        <time>2022-07-12T18:43:43Z</time>
      </trkpt>
      <trkpt lat="49.20059" lon="7.2637">
        <ele>304.7</ele>
        <time>2022-07-12T18:43:51Z</time>
      </trkpt>
      <trkpt lat="49.20061" lon="7.26384">
        <ele>304.8</ele>
        <time>2022-07-12T18:43:59Z</time>
      </trkpt>
      <trkpt lat="49.20063" lon="7.264">
        <ele>305</ele>
        <time>2022-07-12T18:44:08Z</time>
      </trkpt>
      <trkpt lat="49.20065" lon="7.26413">
        <ele>305.1</ele>
        <time>2022-07-12T18:44:16Z</time>
      </trkpt>
      <trkpt lat="49.20067" lon="7.26427">
        <ele>305.3</ele>
        <time>2022-07-12T18:44:24Z</time>
      </trkpt>
      <trkpt lat="49.20068" lon="7.26443">
        <ele>305.6</ele>
        <time>2022-07-12T18:44:31Z</time>
      </trkpt>
      <trkpt lat="49.20069" lon="7.26456">
        <ele>305.9</ele>
        <time>2022-07-12T18:44:38Z</time>
      </trkpt>
      <trkpt lat="49.2007" lon="7.26471">
        <ele>306.2</ele>
        <time>2022-07-12T18:44:45Z</time>
      </trkpt>
      <trkpt lat="49.20069" lon="7.26485">
        <ele>306.4</ele>
        <time>2022-07-12T18:44:53Z</time>
      </trkpt>
      <trkpt lat="49.20069" lon="7.26499">
        <ele>306.7</ele>
        <time>2022-07-12T18:45:00Z</time>
      </trkpt>
      <trkpt lat="49.20071" lon="7.26513">
        <ele>306.9</ele>
        <time>2022-07-12T18:45:08Z</time>
      </trkpt>
      <trkpt lat="49.20073" lon="7.26527">
        <ele>307.2</ele>
        <time>2022-07-12T18:45:16Z</time>
      </trkpt>
      <trkpt lat="49.20074" lon="7.26541">
        <ele>307.6</ele>
        <time>2022-07-12T18:45:23Z</time>
      </trkpt>
      <trkpt lat="49.20077" lon="7.26556">
        <ele>308.2</ele>
        <time>2022-07-12T18:45:29Z</time>
      </trkpt>
      <trkpt lat="49.20077" lon="7.26571">
        <ele>308.8</ele>
        <time>2022-07-12T18:45:37Z</time>
      </trkpt>
      <trkpt lat="49.20079" lon="7.26585">
        <ele>309.4</ele>
        <time>2022-07-12T18:45:44Z</time>
      </trkpt>
      <trkpt lat="49.2008" lon="7.26599">
        <ele>309.9</ele>
        <time>2022-07-12T18:45:52Z</time>
      </trkpt>
      <trkpt lat="49.20081" lon="7.26615">
        <ele>310.4</ele>
        <time>2022-07-12T18:46:00Z</time>
      </trkpt>
      <trkpt lat="49.20083" lon="7.26628">
        <ele>310.9</ele>
        <time>2022-07-12T18:46:07Z</time>
      </trkpt>
      <trkpt lat="49.20084" lon="7.26642">
        <ele>311.4</ele>
        <time>2022-07-12T18:46:13Z</time>
      </trkpt>
      <trkpt lat="49.20085" lon="7.26658">
        <ele>311.9</ele>
        <time>2022-07-12T18:46:21Z</time>
      </trkpt>
      <trkpt lat="49.20087" lon="7.26673">
        <ele>312.5</ele>
        <time>2022-07-12T18:46:30Z</time>
      </trkpt>
      <trkpt lat="49.20089" lon="7.26687">
        <ele>313</ele>
        <time>2022-07-12T18:46:38Z</time>
      </trkpt>
      <trkpt lat="49.20089" lon="7.26702">
        <ele>313.2</ele>
        <time>2022-07-12T18:46:46Z</time>
      </trkpt>
      <trkpt lat="49.20088" lon="7.26717">
        <ele>313.5</ele>
        <time>2022-07-12T18:46:54Z</time>
      </trkpt>
      <trkpt lat="49.20083" lon="7.2673">
        <ele>313.8</ele>
        <time>2022-07-12T18:47:02Z</time>
      </trkpt>
      <trkpt lat="49.20073" lon="7.26735">
        <ele>314.3</ele>
        <time>2022-07-12T18:47:10Z</time>
      </trkpt>
      <trkpt lat="49.20065" lon="7.26739">
        <ele>314.9</ele>
        <time>2022-07-12T18:47:16Z</time>
      </trkpt>
      <trkpt lat="49.20055" lon="7.26741">
        <ele>315.4</ele>
        <time>2022-07-12T18:47:23Z</time>
      </trkpt>
      <trkpt lat="49.20045" lon="7.26742">
        <ele>315.9</ele>
        <time>2022-07-12T18:47:30Z</time>
      </trkpt>
      <trkpt lat="49.20036" lon="7.26744">
        <ele>316.4</ele>
        <time>2022-07-12T18:47:36Z</time>
      </trkpt>
      <trkpt lat="49.20027" lon="7.26747">
        <ele>316.9</ele>
        <time>2022-07-12T18:47:44Z</time>
      </trkpt>
      <trkpt lat="49.20018" lon="7.2675">
        <ele>317.5</ele>
        <time>2022-07-12T18:47:52Z</time>
      </trkpt>
      <trkpt lat="49.20009" lon="7.26752">
        <ele>318.1</ele>
        <time>2022-07-12T18:47:58Z</time>
      </trkpt>
      <trkpt lat="49.19999" lon="7.26756">
        <ele>318.7</ele>
        <time>2022-07-12T18:48:06Z</time>
      </trkpt>
      <trkpt lat="49.1999" lon="7.26759">
        <ele>319.3</ele>
        <time>2022-07-12T18:48:13Z</time>
      </trkpt>
      <trkpt lat="49.19981" lon="7.26764">
        <ele>319.8</ele>
        <time>2022-07-12T18:48:22Z</time>
      </trkpt>
      <trkpt lat="49.19971" lon="7.26769">
        <ele>320.2</ele>
        <time>2022-07-12T18:48:28Z</time>
      </trkpt>
      <trkpt lat="49.19962" lon="7.26775">
        <ele>320.6</ele>
        <time>2022-07-12T18:48:35Z</time>
      </trkpt>
      <trkpt lat="49.19953" lon="7.26779">
        <ele>320.8</ele>
        <time>2022-07-12T18:48:43Z</time>
      </trkpt>
      <trkpt lat="49.19943" lon="7.26783">
        <ele>321.1</ele>
        <time>2022-07-12T18:48:49Z</time>
      </trkpt>
      <trkpt lat="49.19933" lon="7.26788">
        <ele>321.3</ele>
        <time>2022-07-12T18:48:57Z</time>
      </trkpt>
      <trkpt lat="49.19924" lon="7.26792">
        <ele>321.5</ele>
        <time>2022-07-12T18:49:04Z</time>
      </trkpt>
      <trkpt lat="49.19914" lon="7.26799">
        <ele>321.6</ele>
        <time>2022-07-12T18:49:13Z</time>
      </trkpt>
      <trkpt lat="49.19905" lon="7.268">
        <ele>321.7</ele>
        <time>2022-07-12T18:49:20Z</time>
      </trkpt>
      <trkpt lat="49.19895" lon="7.26806">
        <ele>321.8</ele>
        <time>2022-07-12T18:49:29Z</time>
      </trkpt>
      <trkpt lat="49.19886" lon="7.26811">
        <ele>321.8</ele>
        <time>2022-07-12T18:49:36Z</time>
      </trkpt>
      <trkpt lat="49.19877" lon="7.26817">
        <ele>321.9</ele>
        <time>2022-07-12T18:49:43Z</time>
      </trkpt>
      <trkpt lat="49.19868" lon="7.26826">
        <ele>321.9</ele>
        <time>2022-07-12T18:49:51Z</time>
      </trkpt>
      <trkpt lat="49.19858" lon="7.26831">
        <ele>321.8</ele>
        <time>2022-07-12T18:49:58Z</time>
      </trkpt>
      <trkpt lat="49.19848" lon="7.26834">
        <ele>321.7</ele>
        <time>2022-07-12T18:50:08Z</time>
      </trkpt>
      <trkpt lat="49.19839" lon="7.26841">
        <ele>321.6</ele>
        <time>2022-07-12T18:50:16Z</time>
      </trkpt>
      <trkpt lat="49.1983" lon="7.26848">
        <ele>321.5</ele>
        <time>2022-07-12T18:50:22Z</time>
      </trkpt>
      <trkpt lat="49.19821" lon="7.26854">
        <ele>321.3</ele>
        <time>2022-07-12T18:50:31Z</time>
      </trkpt>
      <trkpt lat="49.19813" lon="7.26859">
        <ele>321.1</ele>
        <time>2022-07-12T18:50:40Z</time>
      </trkpt>
      <trkpt lat="49.19803" lon="7.26867">
        <ele>321</ele>
        <time>2022-07-12T18:50:47Z</time>
      </trkpt>
      <trkpt lat="49.19796" lon="7.26876">
        <ele>320.9</ele>
        <time>2022-07-12T18:50:54Z</time>
      </trkpt>
      <trkpt lat="49.19788" lon="7.26886">
        <ele>320.8</ele>
        <time>2022-07-12T18:51:01Z</time>
      </trkpt>
      <trkpt lat="49.19781" lon="7.26896">
        <ele>320.8</ele>
        <time>2022-07-12T18:51:07Z</time>
      </trkpt>
      <trkpt lat="49.19776" lon="7.2691">
        <ele>320.9</ele>
        <time>2022-07-12T18:51:16Z</time>
      </trkpt>
      <trkpt lat="49.19769" lon="7.2692">
        <ele>321.1</ele>
        <time>2022-07-12T18:51:24Z</time>
      </trkpt>
      <trkpt lat="49.19763" lon="7.26933">
        <ele>321.3</ele>
        <time>2022-07-12T18:51:31Z</time>
      </trkpt>
      <trkpt lat="49.19756" lon="7.26944">
        <ele>321.6</ele>
        <time>2022-07-12T18:51:39Z</time>
      </trkpt>
      <trkpt lat="49.1975" lon="7.26956">
        <ele>321.9</ele>
        <time>2022-07-12T18:51:47Z</time>
      </trkpt>
      <trkpt lat="49.19743" lon="7.26966">
        <ele>322.3</ele>
        <time>2022-07-12T18:51:55Z</time>
      </trkpt>
      <trkpt lat="49.19736" lon="7.26977">
        <ele>322.7</ele>
        <time>2022-07-12T18:52:03Z</time>
      </trkpt>
      <trkpt lat="49.1973" lon="7.26988">
        <ele>323.2</ele>
        <time>2022-07-12T18:52:10Z</time>
      </trkpt>
      <trkpt lat="49.19724" lon="7.26999">
        <ele>323.5</ele>
        <time>2022-07-12T18:52:17Z</time>
      </trkpt>
      <trkpt lat="49.19716" lon="7.27006">
        <ele>323.7</ele>
        <time>2022-07-12T18:52:24Z</time>
      </trkpt>
      <trkpt lat="49.19706" lon="7.27012">
        <ele>323.9</ele>
        <time>2022-07-12T18:52:31Z</time>
      </trkpt>
      <trkpt lat="49.19697" lon="7.27015">
        <ele>324</ele>
        <time>2022-07-12T18:52:40Z</time>
      </trkpt>
      <trkpt lat="49.19695" lon="7.27015">
        <ele>324.1</ele>
        <time>2022-07-12T18:52:45Z</time>
      </trkpt>
      <trkpt lat="49.19695" lon="7.27016">
        <ele>324.1</ele>
        <time>2022-07-12T18:52:46Z</time>
      </trkpt>
      <trkpt lat="49.19685" lon="7.27017">
        <ele>324.2</ele>
        <time>2022-07-12T18:52:53Z</time>
      </trkpt>
      <trkpt lat="49.19676" lon="7.27019">
        <ele>324.3</ele>
        <time>2022-07-12T18:53:00Z</time>
      </trkpt>
      <trkpt lat="49.19666" lon="7.27022">
        <ele>324.5</ele>
        <time>2022-07-12T18:53:06Z</time>
      </trkpt>
      <trkpt lat="49.19657" lon="7.27026">
        <ele>324.7</ele>
        <time>2022-07-12T18:53:13Z</time>
      </trkpt>
      <trkpt lat="49.19649" lon="7.27031">
        <ele>325</ele>
        <time>2022-07-12T18:53:24Z</time>
      </trkpt>
      <trkpt lat="49.19641" lon="7.2704">
        <ele>325.4</ele>
        <time>2022-07-12T18:53:29Z</time>
      </trkpt>
      <trkpt lat="49.19633" lon="7.2705">
        <ele>325.9</ele>
        <time>2022-07-12T18:53:35Z</time>
      </trkpt>
      <trkpt lat="49.19628" lon="7.27061">
        <ele>326.5</ele>
        <time>2022-07-12T18:53:42Z</time>
      </trkpt>
      <trkpt lat="49.19625" lon="7.2707">
        <ele>327</ele>
        <time>2022-07-12T18:53:50Z</time>
      </trkpt>
      <trkpt lat="49.19625" lon="7.2707">
        <ele>327</ele>
        <time>2022-07-12T18:53:57Z</time>
      </trkpt>
      <trkpt lat="49.19621" lon="7.27085">
        <ele>328</ele>
        <time>2022-07-12T18:54:05Z</time>
      </trkpt>
      <trkpt lat="49.19617" lon="7.27099">
        <ele>329.3</ele>
        <time>2022-07-12T18:54:12Z</time>
      </trkpt>
      <trkpt lat="49.19614" lon="7.27113">
        <ele>330.8</ele>
        <time>2022-07-12T18:54:19Z</time>
      </trkpt>
      <trkpt lat="49.19611" lon="7.27127">
        <ele>332.7</ele>
        <time>2022-07-12T18:54:26Z</time>
      </trkpt>
      <trkpt lat="49.19608" lon="7.2714">
        <ele>334.5</ele>
        <time>2022-07-12T18:54:33Z</time>
      </trkpt>
      <trkpt lat="49.19605" lon="7.27155">
        <ele>336.5</ele>
        <time>2022-07-12T18:54:40Z</time>
      </trkpt>
      <trkpt lat="49.19601" lon="7.27168">
        <ele>338.3</ele>
        <time>2022-07-12T18:54:49Z</time>
      </trkpt>
      <trkpt lat="49.19596" lon="7.2718">
        <ele>340</ele>
        <time>2022-07-12T18:54:55Z</time>
      </trkpt>
      <trkpt lat="49.19589" lon="7.27191">
        <ele>341.5</ele>
        <time>2022-07-12T18:55:03Z</time>
      </trkpt>
      <trkpt lat="49.19586" lon="7.27205">
        <ele>342.8</ele>
        <time>2022-07-12T18:55:11Z</time>
      </trkpt>
      <trkpt lat="49.19581" lon="7.27218">
        <ele>344.1</ele>
        <time>2022-07-12T18:55:18Z</time>
      </trkpt>
      <trkpt lat="49.19576" lon="7.27231">
        <ele>345.3</ele>
        <time>2022-07-12T18:55:25Z</time>
      </trkpt>
      <trkpt lat="49.19571" lon="7.27242">
        <ele>346.2</ele>
        <time>2022-07-12T18:55:32Z</time>
      </trkpt>
      <trkpt lat="49.19563" lon="7.27248">
        <ele>346.7</ele>
        <time>2022-07-12T18:55:38Z</time>
      </trkpt>
      <trkpt lat="49.19553" lon="7.27245">
        <ele>347</ele>
        <time>2022-07-12T18:55:46Z</time>
      </trkpt>
      <trkpt lat="49.19544" lon="7.27244">
        <ele>347</ele>
        <time>2022-07-12T18:55:53Z</time>
      </trkpt>
      <trkpt lat="49.19535" lon="7.27242">
        <ele>346.9</ele>
        <time>2022-07-12T18:56:00Z</time>
      </trkpt>
      <trkpt lat="49.19526" lon="7.27239">
        <ele>346.9</ele>
        <time>2022-07-12T18:56:06Z</time>
      </trkpt>
      <trkpt lat="49.19517" lon="7.27237">
        <ele>347</ele>
        <time>2022-07-12T18:56:13Z</time>
      </trkpt>
      <trkpt lat="49.19508" lon="7.27237">
        <ele>347</ele>
        <time>2022-07-12T18:56:20Z</time>
      </trkpt>
      <trkpt lat="49.19504" lon="7.27236">
        <ele>347.1</ele>
        <time>2022-07-12T18:56:26Z</time>
      </trkpt>
      <trkpt lat="49.19504" lon="7.27235">
        <ele>347.1</ele>
        <time>2022-07-12T18:56:28Z</time>
      </trkpt>
      <trkpt lat="49.19494" lon="7.27232">
        <ele>347.1</ele>
        <time>2022-07-12T18:56:36Z</time>
      </trkpt>
      <trkpt lat="49.19484" lon="7.27229">
        <ele>347.2</ele>
        <time>2022-07-12T18:56:43Z</time>
      </trkpt>
      <trkpt lat="49.19475" lon="7.27225">
        <ele>347.3</ele>
        <time>2022-07-12T18:56:51Z</time>
      </trkpt>
      <trkpt lat="49.19466" lon="7.27223">
        <ele>347.4</ele>
        <time>2022-07-12T18:56:59Z</time>
      </trkpt>
      <trkpt lat="49.19456" lon="7.27219">
        <ele>347.5</ele>
        <time>2022-07-12T18:57:06Z</time>
      </trkpt>
      <trkpt lat="49.19446" lon="7.27217">
        <ele>347.6</ele>
        <time>2022-07-12T18:57:13Z</time>
      </trkpt>
      <trkpt lat="49.19437" lon="7.27216">
        <ele>347.7</ele>
        <time>2022-07-12T18:57:19Z</time>
      </trkpt>
      <trkpt lat="49.19427" lon="7.27215">
        <ele>347.8</ele>
        <time>2022-07-12T18:57:27Z</time>
      </trkpt>
      <trkpt lat="49.19417" lon="7.27214">
        <ele>347.9</ele>
        <time>2022-07-12T18:57:35Z</time>
      </trkpt>
      <trkpt lat="49.19408" lon="7.27212">
        <ele>348</ele>
        <time>2022-07-12T18:57:43Z</time>
      </trkpt>
      <trkpt lat="49.19399" lon="7.2721">
        <ele>348</ele>
        <time>2022-07-12T18:57:50Z</time>
      </trkpt>
      <trkpt lat="49.19389" lon="7.27208">
        <ele>348</ele>
        <time>2022-07-12T18:57:57Z</time>
      </trkpt>
      <trkpt lat="49.19379" lon="7.27204">
        <ele>348</ele>
        <time>2022-07-12T18:58:05Z</time>
      </trkpt>
      <trkpt lat="49.1937" lon="7.27202">
        <ele>348</ele>
        <time>2022-07-12T18:58:12Z</time>
      </trkpt>
      <trkpt lat="49.1936" lon="7.27205">
        <ele>347.9</ele>
        <time>2022-07-12T18:58:19Z</time>
      </trkpt>
      <trkpt lat="49.19351" lon="7.27203">
        <ele>347.9</ele>
        <time>2022-07-12T18:58:27Z</time>
      </trkpt>
      <trkpt lat="49.19345" lon="7.27206">
        <ele>347.9</ele>
        <time>2022-07-12T18:58:41Z</time>
      </trkpt>
      <trkpt lat="49.19345" lon="7.27206">
        <ele>347.9</ele>
        <time>2022-07-12T18:58:42Z</time>
      </trkpt>
      <trkpt lat="49.19344" lon="7.27205">
        <ele>347.9</ele>
        <time>2022-07-12T18:58:46Z</time>
      </trkpt>
      <trkpt lat="49.19344" lon="7.27206">
        <ele>347.9</ele>
        <time>2022-07-12T18:58:48Z</time>
      </trkpt>
      <trkpt lat="49.19334" lon="7.27205">
        <ele>348</ele>
        <time>2022-07-12T18:59:00Z</time>
      </trkpt>
      <trkpt lat="49.19324" lon="7.27202">
        <ele>348.3</ele>
        <time>2022-07-12T18:59:07Z</time>
      </trkpt>
      <trkpt lat="49.19315" lon="7.27204">
        <ele>348.6</ele>
        <time>2022-07-12T18:59:15Z</time>
      </trkpt>
      <trkpt lat="49.19305" lon="7.27199">
        <ele>348.9</ele>
        <time>2022-07-12T18:59:22Z</time>
      </trkpt>
      <trkpt lat="49.19296" lon="7.27196">
        <ele>349.2</ele>
        <time>2022-07-12T18:59:30Z</time>
      </trkpt>
      <trkpt lat="49.19286" lon="7.27194">
        <ele>349.6</ele>
        <time>2022-07-12T18:59:38Z</time>
      </trkpt>
      <trkpt lat="49.19277" lon="7.27191">
        <ele>350.1</ele>
        <time>2022-07-12T18:59:45Z</time>
      </trkpt>
      <trkpt lat="49.19267" lon="7.27187">
        <ele>350.7</ele>
        <time>2022-07-12T18:59:52Z</time>
      </trkpt>
      <trkpt lat="49.19258" lon="7.27188">
        <ele>351.2</ele>
        <time>2022-07-12T18:59:59Z</time>
      </trkpt>
      <trkpt lat="49.19249" lon="7.27186">
        <ele>351.7</ele>
        <time>2022-07-12T19:00:06Z</time>
      </trkpt>
      <trkpt lat="49.19239" lon="7.27185">
        <ele>352.2</ele>
        <time>2022-07-12T19:00:13Z</time>
      </trkpt>
      <trkpt lat="49.19229" lon="7.27184">
        <ele>352.8</ele>
        <time>2022-07-12T19:00:20Z</time>
      </trkpt>
      <trkpt lat="49.1922" lon="7.2718">
        <ele>353.4</ele>
        <time>2022-07-12T19:00:27Z</time>
      </trkpt>
      <trkpt lat="49.1921" lon="7.27178">
        <ele>354.2</ele>
        <time>2022-07-12T19:00:34Z</time>
      </trkpt>
      <trkpt lat="49.192" lon="7.27178">
        <ele>355</ele>
        <time>2022-07-12T19:00:40Z</time>
      </trkpt>
      <trkpt lat="49.1919" lon="7.27174">
        <ele>355.9</ele>
        <time>2022-07-12T19:00:47Z</time>
      </trkpt>
      <trkpt lat="49.19181" lon="7.27172">
        <ele>356.8</ele>
        <time>2022-07-12T19:00:54Z</time>
      </trkpt>
      <trkpt lat="49.19171" lon="7.27175">
        <ele>357.8</ele>
        <time>2022-07-12T19:01:00Z</time>
      </trkpt>
      <trkpt lat="49.19162" lon="7.27178">
        <ele>358.8</ele>
        <time>2022-07-12T19:01:08Z</time>
      </trkpt>
      <trkpt lat="49.19154" lon="7.27183">
        <ele>359.6</ele>
        <time>2022-07-12T19:01:15Z</time>
      </trkpt>
      <trkpt lat="49.19145" lon="7.27187">
        <ele>360.2</ele>
        <time>2022-07-12T19:01:23Z</time>
      </trkpt>
      <trkpt lat="49.19135" lon="7.2719">
        <ele>360.7</ele>
        <time>2022-07-12T19:01:31Z</time>
      </trkpt>
      <trkpt lat="49.19125" lon="7.27195">
        <ele>361.2</ele>
        <time>2022-07-12T19:01:39Z</time>
      </trkpt>
      <trkpt lat="49.19115" lon="7.27197">
        <ele>361.8</ele>
        <time>2022-07-12T19:01:47Z</time>
      </trkpt>
      <trkpt lat="49.19106" lon="7.27195">
        <ele>362.3</ele>
        <time>2022-07-12T19:01:54Z</time>
      </trkpt>
      <trkpt lat="49.19097" lon="7.27194">
        <ele>362.8</ele>
        <time>2022-07-12T19:02:01Z</time>
      </trkpt>
      <trkpt lat="49.19087" lon="7.27192">
        <ele>363.4</ele>
        <time>2022-07-12T19:02:07Z</time>
      </trkpt>
      <trkpt lat="49.19077" lon="7.27189">
        <ele>364</ele>
        <time>2022-07-12T19:02:13Z</time>
      </trkpt>
      <trkpt lat="49.19067" lon="7.27188">
        <ele>364.6</ele>
        <time>2022-07-12T19:02:19Z</time>
      </trkpt>
      <trkpt lat="49.19057" lon="7.27187">
        <ele>365.2</ele>
        <time>2022-07-12T19:02:26Z</time>
      </trkpt>
      <trkpt lat="49.19047" lon="7.27182">
        <ele>365.9</ele>
        <time>2022-07-12T19:02:34Z</time>
      </trkpt>
      <trkpt lat="49.19037" lon="7.27184">
        <ele>366.7</ele>
        <time>2022-07-12T19:02:43Z</time>
      </trkpt>
      <trkpt lat="49.19028" lon="7.27188">
        <ele>367.5</ele>
        <time>2022-07-12T19:02:49Z</time>
      </trkpt>
      <trkpt lat="49.19019" lon="7.27191">
        <ele>368.3</ele>
        <time>2022-07-12T19:02:55Z</time>
      </trkpt>
      <trkpt lat="49.19008" lon="7.27196">
        <ele>369.3</ele>
        <time>2022-07-12T19:03:01Z</time>
      </trkpt>
      <trkpt lat="49.18999" lon="7.27199">
        <ele>370.2</ele>
        <time>2022-07-12T19:03:08Z</time>
      </trkpt>
      <trkpt lat="49.18989" lon="7.27199">
        <ele>371.1</ele>
        <time>2022-07-12T19:03:15Z</time>
      </trkpt>
      <trkpt lat="49.1898" lon="7.27199">
        <ele>372</ele>
        <time>2022-07-12T19:03:21Z</time>
      </trkpt>
      <trkpt lat="49.1897" lon="7.27199">
        <ele>372.9</ele>
        <time>2022-07-12T19:03:28Z</time>
      </trkpt>
      <trkpt lat="49.18961" lon="7.27199">
        <ele>373.7</ele>
        <time>2022-07-12T19:03:34Z</time>
      </trkpt>
      <trkpt lat="49.18952" lon="7.27199">
        <ele>374.5</ele>
        <time>2022-07-12T19:03:41Z</time>
      </trkpt>
      <trkpt lat="49.18942" lon="7.27198">
        <ele>375.5</ele>
        <time>2022-07-12T19:03:48Z</time>
      </trkpt>
      <trkpt lat="49.18932" lon="7.27201">
        <ele>376.3</ele>
        <time>2022-07-12T19:03:56Z</time>
      </trkpt>
      <trkpt lat="49.18923" lon="7.27203">
        <ele>377.2</ele>
        <time>2022-07-12T19:04:02Z</time>
      </trkpt>
      <trkpt lat="49.18914" lon="7.27207">
        <ele>378</ele>
        <time>2022-07-12T19:04:08Z</time>
      </trkpt>
      <trkpt lat="49.18905" lon="7.27209">
        <ele>378.9</ele>
        <time>2022-07-12T19:04:14Z</time>
      </trkpt>
      <trkpt lat="49.18895" lon="7.27211">
        <ele>379.9</ele>
        <time>2022-07-12T19:04:22Z</time>
      </trkpt>
      <trkpt lat="49.18886" lon="7.27212">
        <ele>380.8</ele>
        <time>2022-07-12T19:04:27Z</time>
      </trkpt>
      <trkpt lat="49.18877" lon="7.27213">
        <ele>381.8</ele>
        <time>2022-07-12T19:04:32Z</time>
      </trkpt>
      <trkpt lat="49.18866" lon="7.27217">
        <ele>382.9</ele>
        <time>2022-07-12T19:04:38Z</time>
      </trkpt>
      <trkpt lat="49.18859" lon="7.27225">
        <ele>383.3</ele>
        <time>2022-07-12T19:04:52Z</time>
      </trkpt>
      <trkpt lat="49.18855" lon="7.27239">
        <ele>383.7</ele>
        <time>2022-07-12T19:04:59Z</time>
      </trkpt>
      <trkpt lat="49.18855" lon="7.27253">
        <ele>384</ele>
        <time>2022-07-12T19:05:07Z</time>
      </trkpt>
      <trkpt lat="49.18854" lon="7.27267">
        <ele>384.3</ele>
        <time>2022-07-12T19:05:17Z</time>
      </trkpt>
      <trkpt lat="49.18853" lon="7.27282">
        <ele>384.7</ele>
        <time>2022-07-12T19:05:25Z</time>
      </trkpt>
      <trkpt lat="49.18849" lon="7.27297">
        <ele>385.1</ele>
        <time>2022-07-12T19:05:33Z</time>
      </trkpt>
      <trkpt lat="49.18849" lon="7.27312">
        <ele>385.4</ele>
        <time>2022-07-12T19:05:41Z</time>
      </trkpt>
      <trkpt lat="49.18849" lon="7.27326">
        <ele>385.7</ele>
        <time>2022-07-12T19:05:47Z</time>
      </trkpt>
      <trkpt lat="49.18845" lon="7.2734">
        <ele>386.1</ele>
        <time>2022-07-12T19:05:52Z</time>
      </trkpt>
      <trkpt lat="49.18847" lon="7.27355">
        <ele>386.4</ele>
        <time>2022-07-12T19:05:57Z</time>
      </trkpt>
      <trkpt lat="49.18842" lon="7.27369">
        <ele>386.8</ele>
        <time>2022-07-12T19:06:05Z</time>
      </trkpt>
      <trkpt lat="49.18837" lon="7.27381">
        <ele>387</ele>
        <time>2022-07-12T19:06:10Z</time>
      </trkpt>
      <trkpt lat="49.18833" lon="7.27394">
        <ele>387.4</ele>
        <time>2022-07-12T19:06:17Z</time>
      </trkpt>
      <trkpt lat="49.18833" lon="7.27408">
        <ele>387.7</ele>
        <time>2022-07-12T19:06:22Z</time>
      </trkpt>
      <trkpt lat="49.18831" lon="7.27423">
        <ele>388.2</ele>
        <time>2022-07-12T19:06:27Z</time>
      </trkpt>
      <trkpt lat="49.18833" lon="7.27438">
        <ele>388.6</ele>
        <time>2022-07-12T19:06:34Z</time>
      </trkpt>
      <trkpt lat="49.18829" lon="7.27451">
        <ele>389</ele>
        <time>2022-07-12T19:06:40Z</time>
      </trkpt>
      <trkpt lat="49.18826" lon="7.27464">
        <ele>389.4</ele>
        <time>2022-07-12T19:06:48Z</time>
      </trkpt>
      <trkpt lat="49.18826" lon="7.27479">
        <ele>389.8</ele>
        <time>2022-07-12T19:06:56Z</time>
      </trkpt>
      <trkpt lat="49.18823" lon="7.27494">
        <ele>390.2</ele>
        <time>2022-07-12T19:07:03Z</time>
      </trkpt>
      <trkpt lat="49.1882" lon="7.27508">
        <ele>390.7</ele>
        <time>2022-07-12T19:07:11Z</time>
      </trkpt>
      <trkpt lat="49.18818" lon="7.27522">
        <ele>391.2</ele>
        <time>2022-07-12T19:07:18Z</time>
      </trkpt>
      <trkpt lat="49.18818" lon="7.27537">
        <ele>391.6</ele>
        <time>2022-07-12T19:07:27Z</time>
      </trkpt>
      <trkpt lat="49.18816" lon="7.2755">
        <ele>392.1</ele>
        <time>2022-07-12T19:07:35Z</time>
      </trkpt>
      <trkpt lat="49.1881" lon="7.2756">
        <ele>392.5</ele>
        <time>2022-07-12T19:07:45Z</time>
      </trkpt>
      <trkpt lat="49.1881" lon="7.2756">
        <ele>392.5</ele>
        <time>2022-07-12T19:07:50Z</time>
      </trkpt>
      <trkpt lat="49.18807" lon="7.27575">
        <ele>393.1</ele>
        <time>2022-07-12T19:07:58Z</time>
      </trkpt>
      <trkpt lat="49.18804" lon="7.27588">
        <ele>393.6</ele>
        <time>2022-07-12T19:08:05Z</time>
      </trkpt>
      <trkpt lat="49.18802" lon="7.27602">
        <ele>394.1</ele>
        <time>2022-07-12T19:08:14Z</time>
      </trkpt>
      <trkpt lat="49.188" lon="7.27616">
        <ele>394.4</ele>
        <time>2022-07-12T19:08:20Z</time>
      </trkpt>
      <trkpt lat="49.18796" lon="7.2763">
        <ele>394.8</ele>
        <time>2022-07-12T19:08:26Z</time>
      </trkpt>
      <trkpt lat="49.18792" lon="7.27643">
        <ele>395.1</ele>
        <time>2022-07-12T19:08:31Z</time>
      </trkpt>
      <trkpt lat="49.1879" lon="7.27657">
        <ele>395.4</ele>
        <time>2022-07-12T19:08:36Z</time>
      </trkpt>
      <trkpt lat="49.18788" lon="7.27671">
        <ele>395.6</ele>
        <time>2022-07-12T19:08:47Z</time>
      </trkpt>
      <trkpt lat="49.18787" lon="7.27687">
        <ele>395.9</ele>
        <time>2022-07-12T19:08:57Z</time>
      </trkpt>
      <trkpt lat="49.18785" lon="7.27702">
        <ele>396.2</ele>
        <time>2022-07-12T19:09:05Z</time>
      </trkpt>
      <trkpt lat="49.18783" lon="7.27717">
        <ele>396.5</ele>
        <time>2022-07-12T19:09:13Z</time>
      </trkpt>
      <trkpt lat="49.18782" lon="7.27733">
        <ele>396.9</ele>
        <time>2022-07-12T19:09:19Z</time>
      </trkpt>
      <trkpt lat="49.18781" lon="7.27746">
        <ele>397.2</ele>
        <time>2022-07-12T19:09:26Z</time>
      </trkpt>
      <trkpt lat="49.18781" lon="7.27762">
        <ele>397.6</ele>
        <time>2022-07-12T19:09:32Z</time>
      </trkpt>
      <trkpt lat="49.18778" lon="7.27777">
        <ele>397.9</ele>
        <time>2022-07-12T19:09:41Z</time>
      </trkpt>
      <trkpt lat="49.18778" lon="7.27791">
        <ele>398.3</ele>
        <time>2022-07-12T19:09:47Z</time>
      </trkpt>
      <trkpt lat="49.18775" lon="7.27807">
        <ele>398.6</ele>
        <time>2022-07-12T19:09:52Z</time>
      </trkpt>
      <trkpt lat="49.18772" lon="7.27822">
        <ele>398.8</ele>
        <time>2022-07-12T19:09:58Z</time>
      </trkpt>
      <trkpt lat="49.18768" lon="7.27837">
        <ele>399</ele>
        <time>2022-07-12T19:10:04Z</time>
      </trkpt>
      <trkpt lat="49.18765" lon="7.27852">
        <ele>399.1</ele>
        <time>2022-07-12T19:10:09Z</time>
      </trkpt>
      <trkpt lat="49.18763" lon="7.27868">
        <ele>399</ele>
        <time>2022-07-12T19:10:16Z</time>
      </trkpt>
      <trkpt lat="49.18768" lon="7.27881">
        <ele>398.8</ele>
        <time>2022-07-12T19:10:23Z</time>
      </trkpt>
      <trkpt lat="49.18776" lon="7.27887">
        <ele>398.5</ele>
        <time>2022-07-12T19:10:33Z</time>
      </trkpt>
      <trkpt lat="49.18785" lon="7.2789">
        <ele>398.1</ele>
        <time>2022-07-12T19:10:42Z</time>
      </trkpt>
      <trkpt lat="49.18791" lon="7.27902">
        <ele>397.8</ele>
        <time>2022-07-12T19:10:50Z</time>
      </trkpt>
      <trkpt lat="49.18788" lon="7.27917">
        <ele>397.4</ele>
        <time>2022-07-12T19:10:57Z</time>
      </trkpt>
      <trkpt lat="49.18786" lon="7.27931">
        <ele>397</ele>
        <time>2022-07-12T19:11:05Z</time>
      </trkpt>
      <trkpt lat="49.1879" lon="7.27943">
        <ele>396.6</ele>
        <time>2022-07-12T19:11:13Z</time>
      </trkpt>
      <trkpt lat="49.18798" lon="7.27952">
        <ele>396.1</ele>
        <time>2022-07-12T19:11:20Z</time>
      </trkpt>
      <trkpt lat="49.18805" lon="7.27961">
        <ele>395.6</ele>
        <time>2022-07-12T19:11:26Z</time>
      </trkpt>
      <trkpt lat="49.18813" lon="7.27969">
        <ele>395.1</ele>
        <time>2022-07-12T19:11:32Z</time>
      </trkpt>
      <trkpt lat="49.18821" lon="7.27978">
        <ele>394.7</ele>
        <time>2022-07-12T19:11:37Z</time>
      </trkpt>
      <trkpt lat="49.18828" lon="7.27989">
        <ele>394.2</ele>
        <time>2022-07-12T19:11:44Z</time>
      </trkpt>
      <trkpt lat="49.18836" lon="7.27999">
        <ele>393.6</ele>
        <time>2022-07-12T19:11:51Z</time>
      </trkpt>
      <trkpt lat="49.18842" lon="7.28009">
        <ele>393</ele>
        <time>2022-07-12T19:11:59Z</time>
      </trkpt>
      <trkpt lat="49.18849" lon="7.28017">
        <ele>392.3</ele>
        <time>2022-07-12T19:12:05Z</time>
      </trkpt>
      <trkpt lat="49.18856" lon="7.28028">
        <ele>391.5</ele>
        <time>2022-07-12T19:12:12Z</time>
      </trkpt>
      <trkpt lat="49.18863" lon="7.28039">
        <ele>390.6</ele>
        <time>2022-07-12T19:12:18Z</time>
      </trkpt>
      <trkpt lat="49.18868" lon="7.28052">
        <ele>389.5</ele>
        <time>2022-07-12T19:12:24Z</time>
      </trkpt>
      <trkpt lat="49.18876" lon="7.28059">
        <ele>388.5</ele>
        <time>2022-07-12T19:12:30Z</time>
      </trkpt>
      <trkpt lat="49.18885" lon="7.28066">
        <ele>387.3</ele>
        <time>2022-07-12T19:12:37Z</time>
      </trkpt>
      <trkpt lat="49.18888" lon="7.28079">
        <ele>385</ele>
        <time>2022-07-12T19:12:45Z</time>
      </trkpt>
      <trkpt lat="49.18886" lon="7.28093">
        <ele>384.4</ele>
        <time>2022-07-12T19:12:51Z</time>
      </trkpt>
      <trkpt lat="49.18879" lon="7.28106">
        <ele>383.9</ele>
        <time>2022-07-12T19:12:57Z</time>
      </trkpt>
      <trkpt lat="49.18874" lon="7.28121">
        <ele>383.5</ele>
        <time>2022-07-12T19:13:03Z</time>
      </trkpt>
      <trkpt lat="49.18868" lon="7.28133">
        <ele>383.2</ele>
        <time>2022-07-12T19:13:10Z</time>
      </trkpt>
      <trkpt lat="49.18863" lon="7.28146">
        <ele>382.9</ele>
        <time>2022-07-12T19:13:17Z</time>
      </trkpt>
      <trkpt lat="49.18857" lon="7.28159">
        <ele>382.6</ele>
        <time>2022-07-12T19:13:24Z</time>
      </trkpt>
      <trkpt lat="49.18852" lon="7.28173">
        <ele>382.3</ele>
        <time>2022-07-12T19:13:31Z</time>
      </trkpt>
      <trkpt lat="49.18846" lon="7.28184">
        <ele>382</ele>
        <time>2022-07-12T19:13:40Z</time>
      </trkpt>
      <trkpt lat="49.18846" lon="7.28184">
        <ele>382</ele>
        <time>2022-07-12T19:13:41Z</time>
      </trkpt>
      <trkpt lat="49.18846" lon="7.28184">
        <ele>382</ele>
        <time>2022-07-12T19:13:45Z</time>
      </trkpt>
      <trkpt lat="49.18846" lon="7.28184">
        <ele>382</ele>
        <time>2022-07-12T19:13:46Z</time>
      </trkpt>
      <trkpt lat="49.18846" lon="7.28185">
        <ele>382</ele>
        <time>2022-07-12T19:13:50Z</time>
      </trkpt>
      <trkpt lat="49.18847" lon="7.282">
        <ele>381.4</ele>
        <time>2022-07-12T19:13:56Z</time>
      </trkpt>
      <trkpt lat="49.18856" lon="7.28209">
        <ele>380.9</ele>
        <time>2022-07-12T19:14:02Z</time>
      </trkpt>
      <trkpt lat="49.18863" lon="7.28218">
        <ele>380.4</ele>
        <time>2022-07-12T19:14:09Z</time>
      </trkpt>
      <trkpt lat="49.18871" lon="7.28227">
        <ele>380</ele>
        <time>2022-07-12T19:14:16Z</time>
      </trkpt>
      <trkpt lat="49.18878" lon="7.28237">
        <ele>379.6</ele>
        <time>2022-07-12T19:14:23Z</time>
      </trkpt>
      <trkpt lat="49.18885" lon="7.28246">
        <ele>379.2</ele>
        <time>2022-07-12T19:14:30Z</time>
      </trkpt>
      <trkpt lat="49.18892" lon="7.28256">
        <ele>378.7</ele>
        <time>2022-07-12T19:14:37Z</time>
      </trkpt>
      <trkpt lat="49.18899" lon="7.28267">
        <ele>378.3</ele>
        <time>2022-07-12T19:14:45Z</time>
      </trkpt>
      <trkpt lat="49.18907" lon="7.28276">
        <ele>377.8</ele>
        <time>2022-07-12T19:14:52Z</time>
      </trkpt>
      <trkpt lat="49.18914" lon="7.28286">
        <ele>377.3</ele>
        <time>2022-07-12T19:15:00Z</time>
      </trkpt>
      <trkpt lat="49.18917" lon="7.283">
        <ele>376.7</ele>
        <time>2022-07-12T19:15:09Z</time>
      </trkpt>
      <trkpt lat="49.18925" lon="7.28309">
        <ele>376.2</ele>
        <time>2022-07-12T19:15:16Z</time>
      </trkpt>
      <trkpt lat="49.18931" lon="7.28319">
        <ele>375.7</ele>
        <time>2022-07-12T19:15:23Z</time>
      </trkpt>
      <trkpt lat="49.1894" lon="7.2833">
        <ele>375</ele>
        <time>2022-07-12T19:15:28Z</time>
      </trkpt>
      <trkpt lat="49.18946" lon="7.2834">
        <ele>374.5</ele>
        <time>2022-07-12T19:15:34Z</time>
      </trkpt>
      <trkpt lat="49.18954" lon="7.2835">
        <ele>373.9</ele>
        <time>2022-07-12T19:15:41Z</time>
      </trkpt>
      <trkpt lat="49.1896" lon="7.28361">
        <ele>373.4</ele>
        <time>2022-07-12T19:15:48Z</time>
      </trkpt>
      <trkpt lat="49.18965" lon="7.28373">
        <ele>373</ele>
        <time>2022-07-12T19:15:55Z</time>
      </trkpt>
      <trkpt lat="49.18973" lon="7.28383">
        <ele>372.6</ele>
        <time>2022-07-12T19:16:03Z</time>
      </trkpt>
      <trkpt lat="49.1898" lon="7.28394">
        <ele>372.2</ele>
        <time>2022-07-12T19:16:08Z</time>
      </trkpt>
      <trkpt lat="49.18987" lon="7.28403">
        <ele>372</ele>
        <time>2022-07-12T19:16:13Z</time>
      </trkpt>
      <trkpt lat="49.18994" lon="7.28414">
        <ele>371.9</ele>
        <time>2022-07-12T19:16:21Z</time>
      </trkpt>
      <trkpt lat="49.19" lon="7.28425">
        <ele>371.7</ele>
        <time>2022-07-12T19:16:28Z</time>
      </trkpt>
      <trkpt lat="49.19006" lon="7.28436">
        <ele>371.7</ele>
        <time>2022-07-12T19:16:36Z</time>
      </trkpt>
      <trkpt lat="49.19013" lon="7.28446">
        <ele>371.6</ele>
        <time>2022-07-12T19:16:44Z</time>
      </trkpt>
      <trkpt lat="49.19021" lon="7.28451">
        <ele>371.5</ele>
        <time>2022-07-12T19:16:51Z</time>
      </trkpt>
      <trkpt lat="49.1903" lon="7.28449">
        <ele>371.4</ele>
        <time>2022-07-12T19:16:58Z</time>
      </trkpt>
      <trkpt lat="49.19039" lon="7.28456">
        <ele>371.1</ele>
        <time>2022-07-12T19:17:05Z</time>
      </trkpt>
      <trkpt lat="49.19047" lon="7.28465">
        <ele>370.8</ele>
        <time>2022-07-12T19:17:12Z</time>
      </trkpt>
      <trkpt lat="49.19049" lon="7.28473">
        <ele>370.6</ele>
        <time>2022-07-12T19:17:19Z</time>
      </trkpt>
      <trkpt lat="49.1905" lon="7.28474">
        <ele>370.5</ele>
        <time>2022-07-12T19:17:20Z</time>
      </trkpt>
      <trkpt lat="49.19054" lon="7.28487">
        <ele>370.2</ele>
        <time>2022-07-12T19:17:26Z</time>
      </trkpt>
      <trkpt lat="49.19057" lon="7.28499">
        <ele>369.8</ele>
        <time>2022-07-12T19:17:32Z</time>
      </trkpt>
      <trkpt lat="49.19061" lon="7.28514">
        <ele>369.4</ele>
        <time>2022-07-12T19:17:39Z</time>
      </trkpt>
      <trkpt lat="49.19067" lon="7.28526">
        <ele>369</ele>
        <time>2022-07-12T19:17:45Z</time>
      </trkpt>
      <trkpt lat="49.19071" lon="7.28538">
        <ele>368.6</ele>
        <time>2022-07-12T19:17:51Z</time>
      </trkpt>
      <trkpt lat="49.19076" lon="7.28552">
        <ele>368.2</ele>
        <time>2022-07-12T19:17:58Z</time>
      </trkpt>
      <trkpt lat="49.19078" lon="7.28565">
        <ele>367.7</ele>
        <time>2022-07-12T19:18:05Z</time>
      </trkpt>
      <trkpt lat="49.19085" lon="7.28577">
        <ele>367.1</ele>
        <time>2022-07-12T19:18:12Z</time>
      </trkpt>
      <trkpt lat="49.19091" lon="7.28588">
        <ele>366.5</ele>
        <time>2022-07-12T19:18:19Z</time>
      </trkpt>
      <trkpt lat="49.19098" lon="7.28597">
        <ele>365.9</ele>
        <time>2022-07-12T19:18:27Z</time>
      </trkpt>
      <trkpt lat="49.19106" lon="7.28605">
        <ele>365.3</ele>
        <time>2022-07-12T19:18:34Z</time>
      </trkpt>
      <trkpt lat="49.19111" lon="7.28617">
        <ele>364.7</ele>
        <time>2022-07-12T19:18:41Z</time>
      </trkpt>
      <trkpt lat="49.19115" lon="7.28629">
        <ele>364.1</ele>
        <time>2022-07-12T19:18:48Z</time>
      </trkpt>
      <trkpt lat="49.19118" lon="7.28644">
        <ele>363.4</ele>
        <time>2022-07-12T19:18:55Z</time>
      </trkpt>
      <trkpt lat="49.19121" lon="7.28657">
        <ele>362.9</ele>
        <time>2022-07-12T19:19:03Z</time>
      </trkpt>
      <trkpt lat="49.19128" lon="7.28666">
        <ele>362.3</ele>
        <time>2022-07-12T19:19:10Z</time>
      </trkpt>
      <trkpt lat="49.19135" lon="7.28679">
        <ele>361.6</ele>
        <time>2022-07-12T19:19:18Z</time>
      </trkpt>
      <trkpt lat="49.19142" lon="7.28691">
        <ele>360.9</ele>
        <time>2022-07-12T19:19:25Z</time>
      </trkpt>
      <trkpt lat="49.19146" lon="7.28704">
        <ele>360.3</ele>
        <time>2022-07-12T19:19:31Z</time>
      </trkpt>
      <trkpt lat="49.19152" lon="7.28717">
        <ele>359.6</ele>
        <time>2022-07-12T19:19:38Z</time>
      </trkpt>
      <trkpt lat="49.19158" lon="7.28728">
        <ele>358.9</ele>
        <time>2022-07-12T19:19:46Z</time>
      </trkpt>
      <trkpt lat="49.19165" lon="7.28741">
        <ele>358.1</ele>
        <time>2022-07-12T19:19:53Z</time>
      </trkpt>
      <trkpt lat="49.19172" lon="7.2875">
        <ele>357.3</ele>
        <time>2022-07-12T19:19:59Z</time>
      </trkpt>
      <trkpt lat="49.19178" lon="7.28762">
        <ele>356.4</ele>
        <time>2022-07-12T19:20:06Z</time>
      </trkpt>
      <trkpt lat="49.19185" lon="7.28775">
        <ele>355.5</ele>
        <time>2022-07-12T19:20:13Z</time>
      </trkpt>
      <trkpt lat="49.1919" lon="7.28786">
        <ele>354.6</ele>
        <time>2022-07-12T19:20:20Z</time>
      </trkpt>
      <trkpt lat="49.19196" lon="7.28797">
        <ele>353.6</ele>
        <time>2022-07-12T19:20:26Z</time>
      </trkpt>
      <trkpt lat="49.19198" lon="7.28803">
        <ele>353.1</ele>
        <time>2022-07-12T19:20:33Z</time>
      </trkpt>
      <trkpt lat="49.19198" lon="7.28804">
        <ele>353.1</ele>
        <time>2022-07-12T19:20:34Z</time>
      </trkpt>
      <trkpt lat="49.19198" lon="7.28804">
        <ele>353.1</ele>
        <time>2022-07-12T19:20:36Z</time>
      </trkpt>
      <trkpt lat="49.19198" lon="7.28804">
        <ele>353.1</ele>
        <time>2022-07-12T19:20:38Z</time>
      </trkpt>
      <trkpt lat="49.19198" lon="7.28804">
        <ele>353.1</ele>
        <time>2022-07-12T19:20:39Z</time>
      </trkpt>
      <trkpt lat="49.19197" lon="7.28804">
        <ele>353</ele>
        <time>2022-07-12T19:20:41Z</time>
      </trkpt>
      <trkpt lat="49.19203" lon="7.28816">
        <ele>352.1</ele>
        <time>2022-07-12T19:20:49Z</time>
      </trkpt>
      <trkpt lat="49.19209" lon="7.28828">
        <ele>351</ele>
        <time>2022-07-12T19:20:57Z</time>
      </trkpt>
      <trkpt lat="49.19217" lon="7.28837">
        <ele>349.8</ele>
        <time>2022-07-12T19:21:05Z</time>
      </trkpt>
      <trkpt lat="49.19225" lon="7.28846">
        <ele>348.6</ele>
        <time>2022-07-12T19:21:13Z</time>
      </trkpt>
      <trkpt lat="49.19233" lon="7.28853">
        <ele>347.4</ele>
        <time>2022-07-12T19:21:20Z</time>
      </trkpt>
      <trkpt lat="49.19242" lon="7.28859">
        <ele>345.9</ele>
        <time>2022-07-12T19:21:28Z</time>
      </trkpt>
      <trkpt lat="49.19252" lon="7.28864">
        <ele>344.4</ele>
        <time>2022-07-12T19:21:36Z</time>
      </trkpt>
      <trkpt lat="49.19261" lon="7.28868">
        <ele>343.1</ele>
        <time>2022-07-12T19:21:44Z</time>
      </trkpt>
      <trkpt lat="49.1927" lon="7.28873">
        <ele>341.8</ele>
        <time>2022-07-12T19:21:53Z</time>
      </trkpt>
      <trkpt lat="49.1928" lon="7.28877">
        <ele>340.5</ele>
        <time>2022-07-12T19:22:01Z</time>
      </trkpt>
      <trkpt lat="49.19288" lon="7.28881">
        <ele>339.2</ele>
        <time>2022-07-12T19:22:08Z</time>
      </trkpt>
      <trkpt lat="49.19298" lon="7.28886">
        <ele>337.7</ele>
        <time>2022-07-12T19:22:16Z</time>
      </trkpt>
      <trkpt lat="49.19306" lon="7.28894">
        <ele>336.3</ele>
        <time>2022-07-12T19:22:23Z</time>
      </trkpt>
      <trkpt lat="49.19313" lon="7.28904">
        <ele>335.1</ele>
        <time>2022-07-12T19:22:29Z</time>
      </trkpt>
      <trkpt lat="49.19319" lon="7.28915">
        <ele>334.1</ele>
        <time>2022-07-12T19:22:36Z</time>
      </trkpt>
      <trkpt lat="49.19325" lon="7.28925">
        <ele>333.3</ele>
        <time>2022-07-12T19:22:43Z</time>
      </trkpt>
      <trkpt lat="49.19332" lon="7.28937">
        <ele>332.6</ele>
        <time>2022-07-12T19:22:51Z</time>
      </trkpt>
      <trkpt lat="49.19338" lon="7.28948">
        <ele>332</ele>
        <time>2022-07-12T19:22:59Z</time>
      </trkpt>
      <trkpt lat="49.19345" lon="7.28958">
        <ele>331.6</ele>
        <time>2022-07-12T19:23:07Z</time>
      </trkpt>
      <trkpt lat="49.19352" lon="7.28969">
        <ele>331.1</ele>
        <time>2022-07-12T19:23:15Z</time>
      </trkpt>
      <trkpt lat="49.19359" lon="7.2898">
        <ele>330.6</ele>
        <time>2022-07-12T19:23:23Z</time>
      </trkpt>
      <trkpt lat="49.19365" lon="7.2899">
        <ele>330.1</ele>
        <time>2022-07-12T19:23:31Z</time>
      </trkpt>
      <trkpt lat="49.19373" lon="7.28982">
        <ele>329.6</ele>
        <time>2022-07-12T19:23:37Z</time>
      </trkpt>
      <trkpt lat="49.19378" lon="7.2897">
        <ele>329.3</ele>
        <time>2022-07-12T19:23:44Z</time>
      </trkpt>
      <trkpt lat="49.19382" lon="7.28957">
        <ele>328.8</ele>
        <time>2022-07-12T19:23:51Z</time>
      </trkpt>
      <trkpt lat="49.19388" lon="7.28946">
        <ele>328.3</ele>
        <time>2022-07-12T19:23:58Z</time>
      </trkpt>
      <trkpt lat="49.19393" lon="7.28934">
        <ele>327.7</ele>
        <time>2022-07-12T19:24:05Z</time>
      </trkpt>
      <trkpt lat="49.19398" lon="7.28922">
        <ele>327</ele>
        <time>2022-07-12T19:24:12Z</time>
      </trkpt>
      <trkpt lat="49.19403" lon="7.28909">
        <ele>326.3</ele>
        <time>2022-07-12T19:24:20Z</time>
      </trkpt>
      <trkpt lat="49.19408" lon="7.28896">
        <ele>325.6</ele>
        <time>2022-07-12T19:24:27Z</time>
      </trkpt>
      <trkpt lat="49.19414" lon="7.28882">
        <ele>324.9</ele>
        <time>2022-07-12T19:24:35Z</time>
      </trkpt>
      <trkpt lat="49.19418" lon="7.28869">
        <ele>324.3</ele>
        <time>2022-07-12T19:24:44Z</time>
      </trkpt>
      <trkpt lat="49.19425" lon="7.28856">
        <ele>323.7</ele>
        <time>2022-07-12T19:24:51Z</time>
      </trkpt>
      <trkpt lat="49.19429" lon="7.28844">
        <ele>323.1</ele>
        <time>2022-07-12T19:24:57Z</time>
      </trkpt>
      <trkpt lat="49.19433" lon="7.28832">
        <ele>322.5</ele>
        <time>2022-07-12T19:25:04Z</time>
      </trkpt>
      <trkpt lat="49.19438" lon="7.2882">
        <ele>321.9</ele>
        <time>2022-07-12T19:25:12Z</time>
      </trkpt>
      <trkpt lat="49.19444" lon="7.28807">
        <ele>321.3</ele>
        <time>2022-07-12T19:25:20Z</time>
      </trkpt>
      <trkpt lat="49.19449" lon="7.28795">
        <ele>320.7</ele>
        <time>2022-07-12T19:25:27Z</time>
      </trkpt>
      <trkpt lat="49.19454" lon="7.28781">
        <ele>320.1</ele>
        <time>2022-07-12T19:25:34Z</time>
      </trkpt>
      <trkpt lat="49.19458" lon="7.28768">
        <ele>319.4</ele>
        <time>2022-07-12T19:25:42Z</time>
      </trkpt>
      <trkpt lat="49.19464" lon="7.28755">
        <ele>318.8</ele>
        <time>2022-07-12T19:25:49Z</time>
      </trkpt>
      <trkpt lat="49.19471" lon="7.28744">
        <ele>318.2</ele>
        <time>2022-07-12T19:25:57Z</time>
      </trkpt>
      <trkpt lat="49.19476" lon="7.28732">
        <ele>317.5</ele>
        <time>2022-07-12T19:26:05Z</time>
      </trkpt>
      <trkpt lat="49.19481" lon="7.2872">
        <ele>316.9</ele>
        <time>2022-07-12T19:26:12Z</time>
      </trkpt>
      <trkpt lat="49.19486" lon="7.28707">
        <ele>316.3</ele>
        <time>2022-07-12T19:26:20Z</time>
      </trkpt>
      <trkpt lat="49.19491" lon="7.28694">
        <ele>315.7</ele>
        <time>2022-07-12T19:26:28Z</time>
      </trkpt>
      <trkpt lat="49.19497" lon="7.28681">
        <ele>315.2</ele>
        <time>2022-07-12T19:26:37Z</time>
      </trkpt>
      <trkpt lat="49.19502" lon="7.2867">
        <ele>314.7</ele>
        <time>2022-07-12T19:26:44Z</time>
      </trkpt>
      <trkpt lat="49.19507" lon="7.28657">
        <ele>314.3</ele>
        <time>2022-07-12T19:26:51Z</time>
      </trkpt>
      <trkpt lat="49.19512" lon="7.28644">
        <ele>313.9</ele>
        <time>2022-07-12T19:26:58Z</time>
      </trkpt>
      <trkpt lat="49.19517" lon="7.28631">
        <ele>313.6</ele>
        <time>2022-07-12T19:27:05Z</time>
      </trkpt>
      <trkpt lat="49.19522" lon="7.28619">
        <ele>313.3</ele>
        <time>2022-07-12T19:27:12Z</time>
      </trkpt>
      <trkpt lat="49.19527" lon="7.28605">
        <ele>313</ele>
        <time>2022-07-12T19:27:19Z</time>
      </trkpt>
      <trkpt lat="49.19532" lon="7.28593">
        <ele>312.7</ele>
        <time>2022-07-12T19:27:26Z</time>
      </trkpt>
      <trkpt lat="49.19537" lon="7.2858">
        <ele>312.4</ele>
        <time>2022-07-12T19:27:34Z</time>
      </trkpt>
      <trkpt lat="49.19542" lon="7.28567">
        <ele>312.1</ele>
        <time>2022-07-12T19:27:43Z</time>
      </trkpt>
      <trkpt lat="49.19548" lon="7.28556">
        <ele>311.8</ele>
        <time>2022-07-12T19:27:50Z</time>
      </trkpt>
      <trkpt lat="49.19554" lon="7.28545">
        <ele>311.5</ele>
        <time>2022-07-12T19:27:57Z</time>
      </trkpt>
      <trkpt lat="49.19559" lon="7.28532">
        <ele>311.2</ele>
        <time>2022-07-12T19:28:04Z</time>
      </trkpt>
      <trkpt lat="49.19564" lon="7.28519">
        <ele>310.9</ele>
        <time>2022-07-12T19:28:11Z</time>
      </trkpt>
      <trkpt lat="49.19568" lon="7.28507">
        <ele>310.6</ele>
        <time>2022-07-12T19:28:17Z</time>
      </trkpt>
      <trkpt lat="49.19573" lon="7.28495">
        <ele>310.2</ele>
        <time>2022-07-12T19:28:24Z</time>
      </trkpt>
      <trkpt lat="49.19578" lon="7.28483">
        <ele>309.8</ele>
        <time>2022-07-12T19:28:31Z</time>
      </trkpt>
      <trkpt lat="49.19584" lon="7.28472">
        <ele>309.4</ele>
        <time>2022-07-12T19:28:39Z</time>
      </trkpt>
      <trkpt lat="49.19588" lon="7.28459">
        <ele>309</ele>
        <time>2022-07-12T19:28:46Z</time>
      </trkpt>
      <trkpt lat="49.19593" lon="7.28445">
        <ele>308.6</ele>
        <time>2022-07-12T19:28:53Z</time>
      </trkpt>
      <trkpt lat="49.19599" lon="7.28433">
        <ele>308.3</ele>
        <time>2022-07-12T19:29:00Z</time>
      </trkpt>
      <trkpt lat="49.19601" lon="7.2843">
        <ele>308.2</ele>
        <time>2022-07-12T19:29:05Z</time>
      </trkpt>
      <trkpt lat="49.19601" lon="7.2843">
        <ele>308.2</ele>
        <time>2022-07-12T19:29:07Z</time>
      </trkpt>
      <trkpt lat="49.19607" lon="7.28417">
        <ele>307.8</ele>
        <time>2022-07-12T19:29:14Z</time>
      </trkpt>
      <trkpt lat="49.19612" lon="7.28405">
        <ele>307.5</ele>
        <time>2022-07-12T19:29:21Z</time>
      </trkpt>
      <trkpt lat="49.19618" lon="7.28392">
        <ele>307.2</ele>
        <time>2022-07-12T19:29:28Z</time>
      </trkpt>
      <trkpt lat="49.19625" lon="7.28383">
        <ele>306.9</ele>
        <time>2022-07-12T19:29:35Z</time>
      </trkpt>
      <trkpt lat="49.19633" lon="7.28373">
        <ele>306.8</ele>
        <time>2022-07-12T19:29:42Z</time>
      </trkpt>
      <trkpt lat="49.19641" lon="7.28364">
        <ele>306.7</ele>
        <time>2022-07-12T19:29:48Z</time>
      </trkpt>
      <trkpt lat="49.19649" lon="7.28356">
        <ele>306.8</ele>
        <time>2022-07-12T19:29:55Z</time>
      </trkpt>
      <trkpt lat="49.19658" lon="7.28349">
        <ele>307</ele>
        <time>2022-07-12T19:30:02Z</time>
      </trkpt>
      <trkpt lat="49.1966" lon="7.28349">
        <ele>307</ele>
        <time>2022-07-12T19:30:05Z</time>
      </trkpt>
      <trkpt lat="49.1966" lon="7.28349">
        <ele>307</ele>
        <time>2022-07-12T19:30:11Z</time>
      </trkpt>
      <trkpt lat="49.19669" lon="7.28345">
        <ele>307.3</ele>
        <time>2022-07-12T19:30:19Z</time>
      </trkpt>
      <trkpt lat="49.19677" lon="7.2834">
        <ele>307.6</ele>
        <time>2022-07-12T19:30:24Z</time>
      </trkpt>
      <trkpt lat="49.19687" lon="7.28337">
        <ele>308</ele>
        <time>2022-07-12T19:30:30Z</time>
      </trkpt>
      <trkpt lat="49.19697" lon="7.28337">
        <ele>308.4</ele>
        <time>2022-07-12T19:30:38Z</time>
      </trkpt>
      <trkpt lat="49.19706" lon="7.28335">
        <ele>308.9</ele>
        <time>2022-07-12T19:30:44Z</time>
      </trkpt>
      <trkpt lat="49.19715" lon="7.28332">
        <ele>309.3</ele>
        <time>2022-07-12T19:30:51Z</time>
      </trkpt>
      <trkpt lat="49.19724" lon="7.2833">
        <ele>309.7</ele>
        <time>2022-07-12T19:30:57Z</time>
      </trkpt>
      <trkpt lat="49.19734" lon="7.28327">
        <ele>310.1</ele>
        <time>2022-07-12T19:31:06Z</time>
      </trkpt>
      <trkpt lat="49.19745" lon="7.28326">
        <ele>310.6</ele>
        <time>2022-07-12T19:31:12Z</time>
      </trkpt>
      <trkpt lat="49.19755" lon="7.28325">
        <ele>311</ele>
        <time>2022-07-12T19:31:19Z</time>
      </trkpt>
      <trkpt lat="49.19765" lon="7.28322">
        <ele>311.4</ele>
        <time>2022-07-12T19:31:26Z</time>
      </trkpt>
      <trkpt lat="49.19776" lon="7.28321">
        <ele>311.8</ele>
        <time>2022-07-12T19:31:33Z</time>
      </trkpt>
      <trkpt lat="49.19785" lon="7.28322">
        <ele>312.1</ele>
        <time>2022-07-12T19:31:39Z</time>
      </trkpt>
      <trkpt lat="49.19794" lon="7.2832">
        <ele>312.4</ele>
        <time>2022-07-12T19:31:45Z</time>
      </trkpt>
      <trkpt lat="49.19804" lon="7.28319">
        <ele>312.8</ele>
        <time>2022-07-12T19:31:52Z</time>
      </trkpt>
      <trkpt lat="49.19814" lon="7.28316">
        <ele>313.1</ele>
        <time>2022-07-12T19:31:59Z</time>
      </trkpt>
      <trkpt lat="49.19824" lon="7.28313">
        <ele>313.4</ele>
        <time>2022-07-12T19:32:06Z</time>
      </trkpt>
      <trkpt lat="49.19833" lon="7.28311">
        <ele>313.7</ele>
        <time>2022-07-12T19:32:12Z</time>
      </trkpt>
      <trkpt lat="49.19843" lon="7.28309">
        <ele>313.9</ele>
        <time>2022-07-12T19:32:18Z</time>
      </trkpt>
      <trkpt lat="49.19852" lon="7.28307">
        <ele>314.1</ele>
        <time>2022-07-12T19:32:24Z</time>
      </trkpt>
      <trkpt lat="49.19862" lon="7.28304">
        <ele>314.3</ele>
        <time>2022-07-12T19:32:31Z</time>
      </trkpt>
      <trkpt lat="49.19871" lon="7.283">
        <ele>314.4</ele>
        <time>2022-07-12T19:32:38Z</time>
      </trkpt>
      <trkpt lat="49.1988" lon="7.28294">
        <ele>314.6</ele>
        <time>2022-07-12T19:32:47Z</time>
      </trkpt>
      <trkpt lat="49.19889" lon="7.28291">
        <ele>314.7</ele>
        <time>2022-07-12T19:32:53Z</time>
      </trkpt>
      <trkpt lat="49.19899" lon="7.28287">
        <ele>314.8</ele>
        <time>2022-07-12T19:33:00Z</time>
      </trkpt>
      <trkpt lat="49.19908" lon="7.28284">
        <ele>314.9</ele>
        <time>2022-07-12T19:33:06Z</time>
      </trkpt>
      <trkpt lat="49.19918" lon="7.28279">
        <ele>314.9</ele>
        <time>2022-07-12T19:33:13Z</time>
      </trkpt>
      <trkpt lat="49.19927" lon="7.28276">
        <ele>315</ele>
        <time>2022-07-12T19:33:20Z</time>
      </trkpt>
      <trkpt lat="49.19937" lon="7.28273">
        <ele>315</ele>
        <time>2022-07-12T19:33:26Z</time>
      </trkpt>
      <trkpt lat="49.19946" lon="7.28268">
        <ele>315.1</ele>
        <time>2022-07-12T19:33:34Z</time>
      </trkpt>
      <trkpt lat="49.19955" lon="7.28263">
        <ele>315.1</ele>
        <time>2022-07-12T19:33:42Z</time>
      </trkpt>
      <trkpt lat="49.19964" lon="7.28258">
        <ele>315.2</ele>
        <time>2022-07-12T19:33:48Z</time>
      </trkpt>
      <trkpt lat="49.19966" lon="7.28244">
        <ele>315.1</ele>
        <time>2022-07-12T19:33:55Z</time>
      </trkpt>
      <trkpt lat="49.19966" lon="7.28229">
        <ele>315</ele>
        <time>2022-07-12T19:34:02Z</time>
      </trkpt>
      <trkpt lat="49.19963" lon="7.28216">
        <ele>314.9</ele>
        <time>2022-07-12T19:34:08Z</time>
      </trkpt>
      <trkpt lat="49.1996" lon="7.28202">
        <ele>314.9</ele>
        <time>2022-07-12T19:34:15Z</time>
      </trkpt>
      <trkpt lat="49.19958" lon="7.28192">
        <ele>314.9</ele>
        <time>2022-07-12T19:34:22Z</time>
      </trkpt>
      <trkpt lat="49.19957" lon="7.28191">
        <ele>315</ele>
        <time>2022-07-12T19:34:25Z</time>
      </trkpt>
      <trkpt lat="49.19954" lon="7.28177">
        <ele>315.1</ele>
        <time>2022-07-12T19:34:32Z</time>
      </trkpt>
      <trkpt lat="49.19951" lon="7.28163">
        <ele>315.2</ele>
        <time>2022-07-12T19:34:39Z</time>
      </trkpt>
      <trkpt lat="49.19949" lon="7.28149">
        <ele>315.4</ele>
        <time>2022-07-12T19:34:45Z</time>
      </trkpt>
      <trkpt lat="49.19944" lon="7.28137">
        <ele>315.7</ele>
        <time>2022-07-12T19:34:51Z</time>
      </trkpt>
      <trkpt lat="49.19942" lon="7.28123">
        <ele>315.9</ele>
        <time>2022-07-12T19:34:58Z</time>
      </trkpt>
      <trkpt lat="49.1994" lon="7.28107">
        <ele>316.2</ele>
        <time>2022-07-12T19:35:05Z</time>
      </trkpt>
      <trkpt lat="49.19938" lon="7.28093">
        <ele>316.5</ele>
        <time>2022-07-12T19:35:12Z</time>
      </trkpt>
      <trkpt lat="49.19935" lon="7.28078">
        <ele>316.9</ele>
        <time>2022-07-12T19:35:19Z</time>
      </trkpt>
      <trkpt lat="49.19932" lon="7.28065">
        <ele>317.2</ele>
        <time>2022-07-12T19:35:27Z</time>
      </trkpt>
      <trkpt lat="49.19932" lon="7.28062">
        <ele>317.3</ele>
        <time>2022-07-12T19:35:32Z</time>
      </trkpt>
      <trkpt lat="49.19931" lon="7.28062">
        <ele>317.3</ele>
        <time>2022-07-12T19:35:39Z</time>
      </trkpt>
      <trkpt lat="49.19931" lon="7.28061">
        <ele>317.3</ele>
        <time>2022-07-12T19:35:40Z</time>
      </trkpt>
      <trkpt lat="49.19931" lon="7.2806">
        <ele>317.3</ele>
        <time>2022-07-12T19:35:41Z</time>
      </trkpt>
      <trkpt lat="49.19927" lon="7.28046">
        <ele>317.7</ele>
        <time>2022-07-12T19:35:49Z</time>
      </trkpt>
      <trkpt lat="49.19924" lon="7.28031">
        <ele>318.1</ele>
        <time>2022-07-12T19:35:56Z</time>
      </trkpt>
      <trkpt lat="49.19923" lon="7.28022">
        <ele>318.3</ele>
        <time>2022-07-12T19:36:03Z</time>
      </trkpt>
      <trkpt lat="49.19924" lon="7.28022">
        <ele>318.2</ele>
        <time>2022-07-12T19:36:10Z</time>
      </trkpt>
      <trkpt lat="49.19932" lon="7.28013">
        <ele>317.8</ele>
        <time>2022-07-12T19:36:16Z</time>
      </trkpt>
      <trkpt lat="49.1994" lon="7.28004">
        <ele>317.3</ele>
        <time>2022-07-12T19:36:23Z</time>
      </trkpt>
      <trkpt lat="49.1995" lon="7.28001">
        <ele>316.8</ele>
        <time>2022-07-12T19:36:30Z</time>
      </trkpt>
      <trkpt lat="49.19961" lon="7.27996">
        <ele>316.3</ele>
        <time>2022-07-12T19:36:37Z</time>
      </trkpt>
      <trkpt lat="49.1997" lon="7.27991">
        <ele>315.8</ele>
        <time>2022-07-12T19:36:44Z</time>
      </trkpt>
      <trkpt lat="49.19978" lon="7.27985">
        <ele>315.4</ele>
        <time>2022-07-12T19:36:50Z</time>
      </trkpt>
      <trkpt lat="49.19988" lon="7.2798">
        <ele>314.9</ele>
        <time>2022-07-12T19:36:57Z</time>
      </trkpt>
      <trkpt lat="49.19998" lon="7.27981">
        <ele>314.8</ele>
        <time>2022-07-12T19:37:04Z</time>
      </trkpt>
      <trkpt lat="49.20005" lon="7.2799">
        <ele>314.8</ele>
        <time>2022-07-12T19:37:12Z</time>
      </trkpt>
      <trkpt lat="49.20012" lon="7.27998">
        <ele>314.8</ele>
        <time>2022-07-12T19:37:21Z</time>
      </trkpt>
      <trkpt lat="49.20021" lon="7.27993">
        <ele>314.8</ele>
        <time>2022-07-12T19:37:27Z</time>
      </trkpt>
      <trkpt lat="49.20031" lon="7.27992">
        <ele>314.8</ele>
        <time>2022-07-12T19:37:35Z</time>
      </trkpt>
      <trkpt lat="49.2004" lon="7.27987">
        <ele>314.8</ele>
        <time>2022-07-12T19:37:46Z</time>
      </trkpt>
      <trkpt lat="49.20049" lon="7.27981">
        <ele>314.8</ele>
        <time>2022-07-12T19:37:55Z</time>
      </trkpt>
      <trkpt lat="49.20057" lon="7.27975">
        <ele>314.8</ele>
        <time>2022-07-12T19:38:02Z</time>
      </trkpt>
      <trkpt lat="49.20066" lon="7.27968">
        <ele>314.8</ele>
        <time>2022-07-12T19:38:10Z</time>
      </trkpt>
      <trkpt lat="49.20075" lon="7.27963">
        <ele>314.8</ele>
        <time>2022-07-12T19:38:18Z</time>
      </trkpt>
      <trkpt lat="49.20084" lon="7.27957">
        <ele>314.8</ele>
        <time>2022-07-12T19:38:26Z</time>
      </trkpt>
      <trkpt lat="49.20093" lon="7.2795">
        <ele>314.5</ele>
        <time>2022-07-12T19:38:35Z</time>
      </trkpt>
      <trkpt lat="49.20102" lon="7.27945">
        <ele>314.1</ele>
        <time>2022-07-12T19:38:42Z</time>
      </trkpt>
      <trkpt lat="49.2011" lon="7.27939">
        <ele>313.8</ele>
        <time>2022-07-12T19:38:50Z</time>
      </trkpt>
      <trkpt lat="49.20119" lon="7.27936">
        <ele>313.5</ele>
        <time>2022-07-12T19:38:59Z</time>
      </trkpt>
      <trkpt lat="49.20122" lon="7.27935">
        <ele>313.1</ele>
        <time>2022-07-12T19:39:06Z</time>
      </trkpt>
      <trkpt lat="49.20123" lon="7.27935">
        <ele>312.6</ele>
        <time>2022-07-12T19:39:09Z</time>
      </trkpt>
      <trkpt lat="49.20132" lon="7.27929">
        <ele>312.6</ele>
        <time>2022-07-12T19:39:20Z</time>
      </trkpt>
      <trkpt lat="49.20142" lon="7.27927">
        <ele>312.2</ele>
        <time>2022-07-12T19:39:27Z</time>
      </trkpt>
      <trkpt lat="49.20151" lon="7.27923">
        <ele>312.2</ele>
        <time>2022-07-12T19:39:35Z</time>
      </trkpt>
      <trkpt lat="49.20161" lon="7.27919">
        <ele>312.2</ele>
        <time>2022-07-12T19:39:43Z</time>
      </trkpt>
      <trkpt lat="49.2017" lon="7.27917">
        <ele>312.4</ele>
        <time>2022-07-12T19:39:51Z</time>
      </trkpt>
      <trkpt lat="49.2018" lon="7.27918">
        <ele>312</ele>
        <time>2022-07-12T19:39:59Z</time>
      </trkpt>
      <trkpt lat="49.20189" lon="7.27914">
        <ele>312.5</ele>
        <time>2022-07-12T19:40:06Z</time>
      </trkpt>
      <trkpt lat="49.20198" lon="7.27914">
        <ele>312.7</ele>
        <time>2022-07-12T19:40:14Z</time>
      </trkpt>
      <trkpt lat="49.20207" lon="7.27909">
        <ele>313.4</ele>
        <time>2022-07-12T19:40:22Z</time>
      </trkpt>
      <trkpt lat="49.20215" lon="7.27905">
        <ele>314.1</ele>
        <time>2022-07-12T19:40:31Z</time>
      </trkpt>
      <trkpt lat="49.20223" lon="7.27896">
        <ele>315.1</ele>
        <time>2022-07-12T19:40:41Z</time>
      </trkpt>
      <trkpt lat="49.20224" lon="7.27882">
        <ele>315.9</ele>
        <time>2022-07-12T19:40:54Z</time>
      </trkpt>
      <trkpt lat="49.20233" lon="7.27876">
        <ele>316.2</ele>
        <time>2022-07-12T19:41:04Z</time>
      </trkpt>
      <trkpt lat="49.20242" lon="7.27875">
        <ele>316</ele>
        <time>2022-07-12T19:41:13Z</time>
      </trkpt>
      <trkpt lat="49.20249" lon="7.27868">
        <ele>316.2</ele>
        <time>2022-07-12T19:41:25Z</time>
      </trkpt>
      <trkpt lat="49.20249" lon="7.27867">
        <ele>315.9</ele>
        <time>2022-07-12T19:41:26Z</time>
      </trkpt>
      <trkpt lat="49.20242" lon="7.27858">
        <ele>315.9</ele>
        <time>2022-07-12T19:41:36Z</time>
      </trkpt>
      <trkpt lat="49.20246" lon="7.27844">
        <ele>316.1</ele>
        <time>2022-07-12T19:41:59Z</time>
      </trkpt>
      <trkpt lat="49.20247" lon="7.2783">
        <ele>316.5</ele>
        <time>2022-07-12T19:42:08Z</time>
      </trkpt>
      <trkpt lat="49.20249" lon="7.27815">
        <ele>316.7</ele>
        <time>2022-07-12T19:42:16Z</time>
      </trkpt>
      <trkpt lat="49.20253" lon="7.27802">
        <ele>316.8</ele>
        <time>2022-07-12T19:42:29Z</time>
      </trkpt>
      <trkpt lat="49.20259" lon="7.27789">
        <ele>316.7</ele>
        <time>2022-07-12T19:42:42Z</time>
      </trkpt>
      <trkpt lat="49.20262" lon="7.27776">
        <ele>316.5</ele>
        <time>2022-07-12T19:42:51Z</time>
      </trkpt>
      <trkpt lat="49.20259" lon="7.27762">
        <ele>316.6</ele>
        <time>2022-07-12T19:42:58Z</time>
      </trkpt>
      <trkpt lat="49.20258" lon="7.27748">
        <ele>316.6</ele>
        <time>2022-07-12T19:43:07Z</time>
      </trkpt>
      <trkpt lat="49.20257" lon="7.27732">
        <ele>316.6</ele>
        <time>2022-07-12T19:43:14Z</time>
      </trkpt>
      <trkpt lat="49.20255" lon="7.27718">
        <ele>316.7</ele>
        <time>2022-07-12T19:43:23Z</time>
      </trkpt>
      <trkpt lat="49.20255" lon="7.27704">
        <ele>316.7</ele>
        <time>2022-07-12T19:43:36Z</time>
      </trkpt>
      <trkpt lat="49.20253" lon="7.27689">
        <ele>316.7</ele>
        <time>2022-07-12T19:43:45Z</time>
      </trkpt>
      <trkpt lat="49.20247" lon="7.27677">
        <ele>316.8</ele>
        <time>2022-07-12T19:43:51Z</time>
      </trkpt>
      <trkpt lat="49.20246" lon="7.27663">
        <ele>316.8</ele>
        <time>2022-07-12T19:43:59Z</time>
      </trkpt>
      <trkpt lat="49.20244" lon="7.27649">
        <ele>316.9</ele>
        <time>2022-07-12T19:44:04Z</time>
      </trkpt>
      <trkpt lat="49.20239" lon="7.27636">
        <ele>316.9</ele>
        <time>2022-07-12T19:44:09Z</time>
      </trkpt>
      <trkpt lat="49.20234" lon="7.27623">
        <ele>316.9</ele>
        <time>2022-07-12T19:44:14Z</time>
      </trkpt>
      <trkpt lat="49.20231" lon="7.27608">
        <ele>317</ele>
        <time>2022-07-12T19:44:21Z</time>
      </trkpt>
      <trkpt lat="49.20226" lon="7.27595">
        <ele>317</ele>
        <time>2022-07-12T19:44:28Z</time>
      </trkpt>
      <trkpt lat="49.20224" lon="7.27585">
        <ele>317</ele>
        <time>2022-07-12T19:44:37Z</time>
      </trkpt>
      <trkpt lat="49.20224" lon="7.27585">
        <ele>317</ele>
        <time>2022-07-12T19:44:38Z</time>
      </trkpt>
      <trkpt lat="49.20219" lon="7.27572">
        <ele>317.1</ele>
        <time>2022-07-12T19:44:46Z</time>
      </trkpt>
      <trkpt lat="49.20212" lon="7.27563">
        <ele>317.1</ele>
        <time>2022-07-12T19:44:52Z</time>
      </trkpt>
      <trkpt lat="49.20209" lon="7.27548">
        <ele>317.1</ele>
        <time>2022-07-12T19:45:03Z</time>
      </trkpt>
      <trkpt lat="49.20207" lon="7.27534">
        <ele>317.2</ele>
        <time>2022-07-12T19:45:11Z</time>
      </trkpt>
      <trkpt lat="49.20201" lon="7.27522">
        <ele>317.2</ele>
        <time>2022-07-12T19:45:18Z</time>
      </trkpt>
      <trkpt lat="49.20198" lon="7.27509">
        <ele>317.3</ele>
        <time>2022-07-12T19:45:24Z</time>
      </trkpt>
      <trkpt lat="49.202" lon="7.27499">
        <ele>317.3</ele>
        <time>2022-07-12T19:45:35Z</time>
      </trkpt>
      <trkpt lat="49.202" lon="7.27499">
        <ele>317.3</ele>
        <time>2022-07-12T19:45:38Z</time>
      </trkpt>
      <trkpt lat="49.20201" lon="7.27499">
        <ele>317.3</ele>
        <time>2022-07-12T19:45:41Z</time>
      </trkpt>
      <trkpt lat="49.20201" lon="7.275">
        <ele>317.3</ele>
        <time>2022-07-12T19:45:44Z</time>
      </trkpt>
      <trkpt lat="49.20201" lon="7.275">
        <ele>317.3</ele>
        <time>2022-07-12T19:45:45Z</time>
      </trkpt>
      <trkpt lat="49.20201" lon="7.275">
        <ele>317.3</ele>
        <time>2022-07-12T19:45:48Z</time>
      </trkpt>
      <trkpt lat="49.20208" lon="7.27489">
        <ele>317.3</ele>
        <time>2022-07-12T19:45:56Z</time>
      </trkpt>
      <trkpt lat="49.20215" lon="7.2748">
        <ele>317.4</ele>
        <time>2022-07-12T19:46:01Z</time>
      </trkpt>
      <trkpt lat="49.20223" lon="7.27472">
        <ele>317.4</ele>
        <time>2022-07-12T19:46:08Z</time>
      </trkpt>
      <trkpt lat="49.20232" lon="7.27465">
        <ele>317.4</ele>
        <time>2022-07-12T19:46:15Z</time>
      </trkpt>
      <trkpt lat="49.2024" lon="7.27459">
        <ele>317.5</ele>
        <time>2022-07-12T19:46:22Z</time>
      </trkpt>
      <trkpt lat="49.20249" lon="7.27452">
        <ele>317.5</ele>
        <time>2022-07-12T19:46:29Z</time>
      </trkpt>
      <trkpt lat="49.20258" lon="7.27446">
        <ele>317.5</ele>
        <time>2022-07-12T19:46:36Z</time>
      </trkpt>
      <trkpt lat="49.20267" lon="7.27439">
        <ele>317.6</ele>
        <time>2022-07-12T19:46:43Z</time>
      </trkpt>
      <trkpt lat="49.20277" lon="7.27433">
        <ele>317.6</ele>
        <time>2022-07-12T19:46:50Z</time>
      </trkpt>
      <trkpt lat="49.20286" lon="7.27426">
        <ele>317.7</ele>
        <time>2022-07-12T19:46:57Z</time>
      </trkpt>
      <trkpt lat="49.20295" lon="7.2742">
        <ele>317.7</ele>
        <time>2022-07-12T19:47:06Z</time>
      </trkpt>
      <trkpt lat="49.20304" lon="7.27414">
        <ele>317.7</ele>
        <time>2022-07-12T19:47:14Z</time>
      </trkpt>
      <trkpt lat="49.20312" lon="7.27406">
        <ele>317.8</ele>
        <time>2022-07-12T19:47:21Z</time>
      </trkpt>
      <trkpt lat="49.2032" lon="7.27398">
        <ele>317.8</ele>
        <time>2022-07-12T19:47:27Z</time>
      </trkpt>
      <trkpt lat="49.20324" lon="7.27385">
        <ele>317.9</ele>
        <time>2022-07-12T19:47:34Z</time>
      </trkpt>
      <trkpt lat="49.20327" lon="7.27372">
        <ele>317.9</ele>
        <time>2022-07-12T19:47:41Z</time>
      </trkpt>
      <trkpt lat="49.20329" lon="7.27358">
        <ele>317.9</ele>
        <time>2022-07-12T19:47:48Z</time>
      </trkpt>
      <trkpt lat="49.2033" lon="7.27343">
        <ele>318</ele>
        <time>2022-07-12T19:47:55Z</time>
      </trkpt>
      <trkpt lat="49.20333" lon="7.27328">
        <ele>318</ele>
        <time>2022-07-12T19:48:04Z</time>
      </trkpt>
      <trkpt lat="49.20336" lon="7.27314">
        <ele>318</ele>
        <time>2022-07-12T19:48:12Z</time>
      </trkpt>
      <trkpt lat="49.2034" lon="7.27301">
        <ele>318.1</ele>
        <time>2022-07-12T19:48:18Z</time>
      </trkpt>
      <trkpt lat="49.20345" lon="7.2729">
        <ele>318.1</ele>
        <time>2022-07-12T19:48:23Z</time>
      </trkpt>
      <trkpt lat="49.20345" lon="7.27275">
        <ele>318</ele>
        <time>2022-07-12T19:48:32Z</time>
      </trkpt>
      <trkpt lat="49.20347" lon="7.27259">
        <ele>317.7</ele>
        <time>2022-07-12T19:48:38Z</time>
      </trkpt>
      <trkpt lat="49.2035" lon="7.27245">
        <ele>317.2</ele>
        <time>2022-07-12T19:48:44Z</time>
      </trkpt>
      <trkpt lat="49.20355" lon="7.27233">
        <ele>316.7</ele>
        <time>2022-07-12T19:48:51Z</time>
      </trkpt>
      <trkpt lat="49.20356" lon="7.27219">
        <ele>316.3</ele>
        <time>2022-07-12T19:48:57Z</time>
      </trkpt>
      <trkpt lat="49.20361" lon="7.27206">
        <ele>316.1</ele>
        <time>2022-07-12T19:49:05Z</time>
      </trkpt>
      <trkpt lat="49.20364" lon="7.27192">
        <ele>315.8</ele>
        <time>2022-07-12T19:49:12Z</time>
      </trkpt>
      <trkpt lat="49.20367" lon="7.27178">
        <ele>315.6</ele>
        <time>2022-07-12T19:49:25Z</time>
      </trkpt>
      <trkpt lat="49.20372" lon="7.27166">
        <ele>315.4</ele>
        <time>2022-07-12T19:49:35Z</time>
      </trkpt>
      <trkpt lat="49.20372" lon="7.27151">
        <ele>315.3</ele>
        <time>2022-07-12T19:49:44Z</time>
      </trkpt>
      <trkpt lat="49.20372" lon="7.27137">
        <ele>315.1</ele>
        <time>2022-07-12T19:50:01Z</time>
      </trkpt>
      <trkpt lat="49.20375" lon="7.27123">
        <ele>314.8</ele>
        <time>2022-07-12T19:50:15Z</time>
      </trkpt>
      <trkpt lat="49.20378" lon="7.27109">
        <ele>314.5</ele>
        <time>2022-07-12T19:50:32Z</time>
      </trkpt>
      <trkpt lat="49.20376" lon="7.27092">
        <ele>314.3</ele>
        <time>2022-07-12T19:50:43Z</time>
      </trkpt>
      <trkpt lat="49.20379" lon="7.27078">
        <ele>314.1</ele>
        <time>2022-07-12T19:50:51Z</time>
      </trkpt>
      <trkpt lat="49.20378" lon="7.27062">
        <ele>313.9</ele>
        <time>2022-07-12T19:51:05Z</time>
      </trkpt>
      <trkpt lat="49.20372" lon="7.27049">
        <ele>314.1</ele>
        <time>2022-07-12T19:51:15Z</time>
      </trkpt>
      <trkpt lat="49.2037" lon="7.27036">
        <ele>313.9</ele>
        <time>2022-07-12T19:51:23Z</time>
      </trkpt>
      <trkpt lat="49.2037" lon="7.27028">
        <ele>313.9</ele>
        <time>2022-07-12T19:51:34Z</time>
      </trkpt>
      <trkpt lat="49.2037" lon="7.27028">
        <ele>313.9</ele>
        <time>2022-07-12T19:51:36Z</time>
      </trkpt>
      <trkpt lat="49.20373" lon="7.27035">
        <ele>313.8</ele>
        <time>2022-07-12T19:51:52Z</time>
      </trkpt>
      <trkpt lat="49.20373" lon="7.27035">
        <ele>313.7</ele>
        <time>2022-07-12T19:51:53Z</time>
      </trkpt>
      <trkpt lat="49.20376" lon="7.27048">
        <ele>313.7</ele>
        <time>2022-07-12T19:52:06Z</time>
      </trkpt>
      <trkpt lat="49.20376" lon="7.27063">
        <ele>313.8</ele>
        <time>2022-07-12T19:52:14Z</time>
      </trkpt>
      <trkpt lat="49.20377" lon="7.27077">
        <ele>313.9</ele>
        <time>2022-07-12T19:52:21Z</time>
      </trkpt>
      <trkpt lat="49.20377" lon="7.27091">
        <ele>314</ele>
        <time>2022-07-12T19:52:39Z</time>
      </trkpt>
      <trkpt lat="49.20376" lon="7.27108">
        <ele>314.1</ele>
        <time>2022-07-12T19:52:44Z</time>
      </trkpt>
      <trkpt lat="49.2038" lon="7.27121">
        <ele>314.2</ele>
        <time>2022-07-12T19:52:46Z</time>
      </trkpt>
      <trkpt lat="49.20373" lon="7.2713">
        <ele>314.4</ele>
        <time>2022-07-12T19:52:53Z</time>
      </trkpt>
      <trkpt lat="49.20368" lon="7.27143">
        <ele>314.6</ele>
        <time>2022-07-12T19:53:03Z</time>
      </trkpt>
      <trkpt lat="49.20358" lon="7.27185">
        <ele>315</ele>
        <time>2022-07-12T19:53:11Z</time>
      </trkpt>
      <trkpt lat="49.20359" lon="7.27201">
        <ele>315.2</ele>
        <time>2022-07-12T19:53:18Z</time>
      </trkpt>
      <trkpt lat="49.20367" lon="7.27196">
        <ele>315.2</ele>
        <time>2022-07-12T19:53:28Z</time>
      </trkpt>
      <trkpt lat="49.20367" lon="7.2721">
        <ele>315.6</ele>
        <time>2022-07-12T19:53:38Z</time>
      </trkpt>
      <trkpt lat="49.2036" lon="7.2722">
        <ele>315.5</ele>
        <time>2022-07-12T19:53:44Z</time>
      </trkpt>
      <trkpt lat="49.2036" lon="7.27235">
        <ele>315.9</ele>
        <time>2022-07-12T19:53:52Z</time>
      </trkpt>
      <trkpt lat="49.20355" lon="7.27247">
        <ele>316.3</ele>
        <time>2022-07-12T19:54:00Z</time>
      </trkpt>
      <trkpt lat="49.2035" lon="7.2726">
        <ele>316.8</ele>
        <time>2022-07-12T19:54:07Z</time>
      </trkpt>
      <trkpt lat="49.20348" lon="7.27274">
        <ele>317</ele>
        <time>2022-07-12T19:54:16Z</time>
      </trkpt>
      <trkpt lat="49.20349" lon="7.27288">
        <ele>317</ele>
        <time>2022-07-12T19:54:24Z</time>
      </trkpt>
      <trkpt lat="49.20342" lon="7.27297">
        <ele>317.1</ele>
        <time>2022-07-12T19:54:33Z</time>
      </trkpt>
      <trkpt lat="49.20342" lon="7.27297">
        <ele>317</ele>
        <time>2022-07-12T19:54:34Z</time>
      </trkpt>
      <trkpt lat="49.2034" lon="7.27303">
        <ele>317.1</ele>
        <time>2022-07-12T19:54:44Z</time>
      </trkpt>
      <trkpt lat="49.20341" lon="7.27304">
        <ele>317.1</ele>
        <time>2022-07-12T19:54:45Z</time>
      </trkpt>
      <trkpt lat="49.20338" lon="7.2731">
        <ele>317.3</ele>
        <time>2022-07-12T19:54:54Z</time>
      </trkpt>
      <trkpt lat="49.20338" lon="7.2731">
        <ele>317.3</ele>
        <time>2022-07-12T19:54:55Z</time>
      </trkpt>
      <trkpt lat="49.20334" lon="7.27324">
        <ele>317.7</ele>
        <time>2022-07-12T19:55:05Z</time>
      </trkpt>
      <trkpt lat="49.20332" lon="7.27339">
        <ele>318.4</ele>
        <time>2022-07-12T19:55:13Z</time>
      </trkpt>
      <trkpt lat="49.20331" lon="7.27355">
        <ele>318.6</ele>
        <time>2022-07-12T19:55:20Z</time>
      </trkpt>
      <trkpt lat="49.20336" lon="7.27369">
        <ele>318.6</ele>
        <time>2022-07-12T19:55:27Z</time>
      </trkpt>
      <trkpt lat="49.20346" lon="7.27371">
        <ele>318.7</ele>
        <time>2022-07-12T19:55:33Z</time>
      </trkpt>
      <trkpt lat="49.20356" lon="7.27369">
        <ele>318.7</ele>
        <time>2022-07-12T19:55:39Z</time>
      </trkpt>
      <trkpt lat="49.20365" lon="7.27366">
        <ele>318.5</ele>
        <time>2022-07-12T19:55:49Z</time>
      </trkpt>
      <trkpt lat="49.20374" lon="7.27368">
        <ele>318.5</ele>
        <time>2022-07-12T19:55:55Z</time>
      </trkpt>
      <trkpt lat="49.20382" lon="7.27367">
        <ele>318.3</ele>
        <time>2022-07-12T19:56:01Z</time>
      </trkpt>
      <trkpt lat="49.20383" lon="7.27366">
        <ele>318.3</ele>
        <time>2022-07-12T19:56:02Z</time>
      </trkpt>
      <trkpt lat="49.20392" lon="7.27361">
        <ele>318.2</ele>
        <time>2022-07-12T19:56:11Z</time>
      </trkpt>
      <trkpt lat="49.20402" lon="7.27364">
        <ele>318.4</ele>
        <time>2022-07-12T19:56:19Z</time>
      </trkpt>
      <trkpt lat="49.20411" lon="7.27362">
        <ele>318.4</ele>
        <time>2022-07-12T19:56:25Z</time>
      </trkpt>
      <trkpt lat="49.2042" lon="7.27362">
        <ele>318.6</ele>
        <time>2022-07-12T19:56:32Z</time>
      </trkpt>
      <trkpt lat="49.20431" lon="7.27354">
        <ele>318.8</ele>
        <time>2022-07-12T19:56:39Z</time>
      </trkpt>
      <trkpt lat="49.20441" lon="7.2735">
        <ele>318.9</ele>
        <time>2022-07-12T19:56:47Z</time>
      </trkpt>
      <trkpt lat="49.2045" lon="7.27345">
        <ele>319.1</ele>
        <time>2022-07-12T19:56:54Z</time>
      </trkpt>
      <trkpt lat="49.20459" lon="7.27343">
        <ele>319.5</ele>
        <time>2022-07-12T19:57:01Z</time>
      </trkpt>
      <trkpt lat="49.20469" lon="7.27336">
        <ele>319.7</ele>
        <time>2022-07-12T19:57:08Z</time>
      </trkpt>
      <trkpt lat="49.20477" lon="7.2733">
        <ele>319.8</ele>
        <time>2022-07-12T19:57:13Z</time>
      </trkpt>
      <trkpt lat="49.20487" lon="7.27326">
        <ele>319.7</ele>
        <time>2022-07-12T19:57:22Z</time>
      </trkpt>
      <trkpt lat="49.20495" lon="7.27319">
        <ele>319.4</ele>
        <time>2022-07-12T19:57:27Z</time>
      </trkpt>
      <trkpt lat="49.20504" lon="7.27312">
        <ele>319.3</ele>
        <time>2022-07-12T19:57:34Z</time>
      </trkpt>
      <trkpt lat="49.20512" lon="7.27303">
        <ele>319.2</ele>
        <time>2022-07-12T19:57:41Z</time>
      </trkpt>
      <trkpt lat="49.20514" lon="7.27289">
        <ele>319</ele>
        <time>2022-07-12T19:57:47Z</time>
      </trkpt>
      <trkpt lat="49.20516" lon="7.27276">
        <ele>318.9</ele>
        <time>2022-07-12T19:57:56Z</time>
      </trkpt>
      <trkpt lat="49.20516" lon="7.27262">
        <ele>318.6</ele>
        <time>2022-07-12T19:58:02Z</time>
      </trkpt>
      <trkpt lat="49.20517" lon="7.27248">
        <ele>318.5</ele>
        <time>2022-07-12T19:58:09Z</time>
      </trkpt>
      <trkpt lat="49.20515" lon="7.27233">
        <ele>318.5</ele>
        <time>2022-07-12T19:58:19Z</time>
      </trkpt>
      <trkpt lat="49.20517" lon="7.27218">
        <ele>318.6</ele>
        <time>2022-07-12T19:58:27Z</time>
      </trkpt>
      <trkpt lat="49.20512" lon="7.27206">
        <ele>318.6</ele>
        <time>2022-07-12T19:58:37Z</time>
      </trkpt>
      <trkpt lat="49.20509" lon="7.27191">
        <ele>317.9</ele>
        <time>2022-07-12T19:58:44Z</time>
      </trkpt>
      <trkpt lat="49.20511" lon="7.27176">
        <ele>317.2</ele>
        <time>2022-07-12T19:58:53Z</time>
      </trkpt>
      <trkpt lat="49.20514" lon="7.27162">
        <ele>316.6</ele>
        <time>2022-07-12T19:58:59Z</time>
      </trkpt>
      <trkpt lat="49.20516" lon="7.27147">
        <ele>315.9</ele>
        <time>2022-07-12T19:59:06Z</time>
      </trkpt>
      <trkpt lat="49.20517" lon="7.27132">
        <ele>315.2</ele>
        <time>2022-07-12T19:59:12Z</time>
      </trkpt>
      <trkpt lat="49.20516" lon="7.27118">
        <ele>314.6</ele>
        <time>2022-07-12T19:59:18Z</time>
      </trkpt>
      <trkpt lat="49.20516" lon="7.27104">
        <ele>314</ele>
        <time>2022-07-12T19:59:24Z</time>
      </trkpt>
      <trkpt lat="49.20514" lon="7.2709">
        <ele>313.4</ele>
        <time>2022-07-12T19:59:31Z</time>
      </trkpt>
      <trkpt lat="49.20514" lon="7.27075">
        <ele>312.8</ele>
        <time>2022-07-12T19:59:38Z</time>
      </trkpt>
      <trkpt lat="49.20515" lon="7.27061">
        <ele>312.2</ele>
        <time>2022-07-12T19:59:47Z</time>
      </trkpt>
      <trkpt lat="49.20516" lon="7.27045">
        <ele>311.6</ele>
        <time>2022-07-12T19:59:52Z</time>
      </trkpt>
      <trkpt lat="49.20513" lon="7.27031">
        <ele>310.9</ele>
        <time>2022-07-12T19:59:59Z</time>
      </trkpt>
      <trkpt lat="49.20514" lon="7.27016">
        <ele>310.3</ele>
        <time>2022-07-12T20:00:06Z</time>
      </trkpt>
      <trkpt lat="49.20519" lon="7.27003">
        <ele>309.6</ele>
        <time>2022-07-12T20:00:13Z</time>
      </trkpt>
      <trkpt lat="49.20524" lon="7.2699">
        <ele>309</ele>
        <time>2022-07-12T20:00:21Z</time>
      </trkpt>
      <trkpt lat="49.20524" lon="7.26975">
        <ele>308.2</ele>
        <time>2022-07-12T20:00:26Z</time>
      </trkpt>
      <trkpt lat="49.20525" lon="7.2696">
        <ele>307.5</ele>
        <time>2022-07-12T20:00:31Z</time>
      </trkpt>
      <trkpt lat="49.20527" lon="7.26946">
        <ele>307.6</ele>
        <time>2022-07-12T20:00:37Z</time>
      </trkpt>
      <trkpt lat="49.20527" lon="7.26931">
        <ele>307.6</ele>
        <time>2022-07-12T20:00:42Z</time>
      </trkpt>
      <trkpt lat="49.20528" lon="7.26915">
        <ele>307.7</ele>
        <time>2022-07-12T20:00:48Z</time>
      </trkpt>
      <trkpt lat="49.20527" lon="7.26901">
        <ele>307.8</ele>
        <time>2022-07-12T20:00:56Z</time>
      </trkpt>
      <trkpt lat="49.20524" lon="7.26887">
        <ele>307.9</ele>
        <time>2022-07-12T20:01:02Z</time>
      </trkpt>
      <trkpt lat="49.20524" lon="7.26873">
        <ele>308.1</ele>
        <time>2022-07-12T20:01:09Z</time>
      </trkpt>
      <trkpt lat="49.20522" lon="7.26857">
        <ele>308.2</ele>
        <time>2022-07-12T20:01:17Z</time>
      </trkpt>
      <trkpt lat="49.20519" lon="7.26844">
        <ele>308.4</ele>
        <time>2022-07-12T20:01:25Z</time>
      </trkpt>
      <trkpt lat="49.20517" lon="7.2683">
        <ele>308.5</ele>
        <time>2022-07-12T20:01:31Z</time>
      </trkpt>
      <trkpt lat="49.20515" lon="7.26816">
        <ele>308.6</ele>
        <time>2022-07-12T20:01:37Z</time>
      </trkpt>
      <trkpt lat="49.20515" lon="7.268">
        <ele>308.6</ele>
        <time>2022-07-12T20:01:44Z</time>
      </trkpt>
      <trkpt lat="49.20516" lon="7.26789">
        <ele>308.5</ele>
        <time>2022-07-12T20:01:56Z</time>
      </trkpt>
      <trkpt lat="49.20516" lon="7.26788">
        <ele>308.5</ele>
        <time>2022-07-12T20:02:14Z</time>
      </trkpt>
      <trkpt lat="49.20514" lon="7.26772">
        <ele>308.5</ele>
        <time>2022-07-12T20:02:24Z</time>
      </trkpt>
      <trkpt lat="49.20514" lon="7.26757">
        <ele>308.4</ele>
        <time>2022-07-12T20:02:31Z</time>
      </trkpt>
      <trkpt lat="49.20512" lon="7.26743">
        <ele>308.3</ele>
        <time>2022-07-12T20:02:39Z</time>
      </trkpt>
      <trkpt lat="49.20506" lon="7.26732">
        <ele>308.2</ele>
        <time>2022-07-12T20:02:45Z</time>
      </trkpt>
      <trkpt lat="49.20504" lon="7.26716">
        <ele>308.1</ele>
        <time>2022-07-12T20:02:51Z</time>
      </trkpt>
      <trkpt lat="49.20502" lon="7.26702">
        <ele>307.9</ele>
        <time>2022-07-12T20:02:57Z</time>
      </trkpt>
      <trkpt lat="49.20504" lon="7.26687">
        <ele>307.7</ele>
        <time>2022-07-12T20:03:04Z</time>
      </trkpt>
      <trkpt lat="49.20505" lon="7.26672">
        <ele>307.6</ele>
        <time>2022-07-12T20:03:12Z</time>
      </trkpt>
      <trkpt lat="49.20503" lon="7.26658">
        <ele>307.4</ele>
        <time>2022-07-12T20:03:20Z</time>
      </trkpt>
      <trkpt lat="49.20501" lon="7.26643">
        <ele>307.3</ele>
        <time>2022-07-12T20:03:29Z</time>
      </trkpt>
      <trkpt lat="49.205" lon="7.26627">
        <ele>307.1</ele>
        <time>2022-07-12T20:03:37Z</time>
      </trkpt>
      <trkpt lat="49.20496" lon="7.26613">
        <ele>306.9</ele>
        <time>2022-07-12T20:03:44Z</time>
      </trkpt>
      <trkpt lat="49.20496" lon="7.26599">
        <ele>306.8</ele>
        <time>2022-07-12T20:03:50Z</time>
      </trkpt>
      <trkpt lat="49.20493" lon="7.26585">
        <ele>306.6</ele>
        <time>2022-07-12T20:03:59Z</time>
      </trkpt>
      <trkpt lat="49.20491" lon="7.26571">
        <ele>306.4</ele>
        <time>2022-07-12T20:04:07Z</time>
      </trkpt>
      <trkpt lat="49.20487" lon="7.26557">
        <ele>306.1</ele>
        <time>2022-07-12T20:04:16Z</time>
      </trkpt>
      <trkpt lat="49.20485" lon="7.26543">
        <ele>305.9</ele>
        <time>2022-07-12T20:04:23Z</time>
      </trkpt>
      <trkpt lat="49.20481" lon="7.2653">
        <ele>305.5</ele>
        <time>2022-07-12T20:04:30Z</time>
      </trkpt>
      <trkpt lat="49.20477" lon="7.26516">
        <ele>305.2</ele>
        <time>2022-07-12T20:04:38Z</time>
      </trkpt>
      <trkpt lat="49.20475" lon="7.26503">
        <ele>304.8</ele>
        <time>2022-07-12T20:04:45Z</time>
      </trkpt>
      <trkpt lat="49.20472" lon="7.26489">
        <ele>304.4</ele>
        <time>2022-07-12T20:04:52Z</time>
      </trkpt>
      <trkpt lat="49.20467" lon="7.26476">
        <ele>304</ele>
        <time>2022-07-12T20:04:59Z</time>
      </trkpt>
      <trkpt lat="49.20463" lon="7.26463">
        <ele>303.8</ele>
        <time>2022-07-12T20:05:07Z</time>
      </trkpt>
      <trkpt lat="49.20462" lon="7.26448">
        <ele>303.6</ele>
        <time>2022-07-12T20:05:15Z</time>
      </trkpt>
      <trkpt lat="49.20461" lon="7.26433">
        <ele>303.4</ele>
        <time>2022-07-12T20:05:23Z</time>
      </trkpt>
      <trkpt lat="49.20456" lon="7.2642">
        <ele>303.2</ele>
        <time>2022-07-12T20:05:32Z</time>
      </trkpt>
      <trkpt lat="49.20451" lon="7.26397">
        <ele>303.2</ele>
        <time>2022-07-12T20:05:41Z</time>
      </trkpt>
      <trkpt lat="49.20449" lon="7.26386">
        <ele>303.2</ele>
        <time>2022-07-12T20:05:48Z</time>
      </trkpt>
      <trkpt lat="49.20447" lon="7.26376">
        <ele>303.2</ele>
        <time>2022-07-12T20:05:57Z</time>
      </trkpt>
      <trkpt lat="49.20446" lon="7.26365">
        <ele>303.1</ele>
        <time>2022-07-12T20:06:03Z</time>
      </trkpt>
      <trkpt lat="49.20444" lon="7.26355">
        <ele>303.1</ele>
        <time>2022-07-12T20:06:09Z</time>
      </trkpt>
      <trkpt lat="49.20442" lon="7.26344">
        <ele>303</ele>
        <time>2022-07-12T20:06:16Z</time>
      </trkpt>
      <trkpt lat="49.2044" lon="7.26334">
        <ele>303</ele>
        <time>2022-07-12T20:06:22Z</time>
      </trkpt>
      <trkpt lat="49.20438" lon="7.26324">
        <ele>302.9</ele>
        <time>2022-07-12T20:06:28Z</time>
      </trkpt>
      <trkpt lat="49.20436" lon="7.26313">
        <ele>302.8</ele>
        <time>2022-07-12T20:06:28Z</time>
      </trkpt>
    </trkseg>
  </trk>
</gpx>